Time,TemperatureF,DewpointF,PressureIn,WindDirection,WindDirectionDegrees,WindSpeedMPH,WindSpeedGustMPH,Humidity,HourlyPrecipIn,Conditions,Clouds,dailyrainin,SoftwareType,DateUTC
2013-05-30 00:01:00,76.2,70.7,30.06,SW,230,0.0,0.0,83,0.00,CLR,,0.00,WeatherDisplay:10.37,2013-05-30 04:01:00,
2013-05-30 00:06:00,76.2,70.3,30.06,SW,230,0.0,0.0,82,0.00,CLR,,0.00,WeatherDisplay:10.37,2013-05-30 04:06:00,
2013-05-30 00:07:00,76.1,70.2,30.06,SW,230,0.0,0.0,82,0.00,CLR,,0.00,WeatherDisplay:10.37,2013-05-30 04:07:00,
2013-05-30 00:11:00,76.1,70.2,30.06,SW,230,0.0,0.0,82,0.00,CLR,,0.00,WeatherDisplay:10.37,2013-05-30 04:11:00,
2013-05-30 00:12:00,76.0,70.1,30.06,SW,230,0.0,0.0,82,0.00,CLR,,0.00,WeatherDisplay:10.37,2013-05-30 04:12:00,
2013-05-30 00:16:00,75.8,69.9,30.06,SW,230,0.0,0.0,82,0.00,CLR,,0.00,WeatherDisplay:10.37,2013-05-30 04:16:00,
2013-05-30 00:17:00,75.7,70.2,30.06,SW,230,0.0,0.0,83,0.00,CLR,,0.00,WeatherDisplay:10.37,2013-05-30 04:17:00,
2013-05-30 00:18:00,75.6,70.1,30.06,SW,230,0.0,0.0,83,0.00,CLR,,0.00,WeatherDisplay:10.37,2013-05-30 04:18:00,
2013-05-30 00:19:00,75.6,70.1,30.06,SW,230,0.0,0.0,83,0.00,CLR,,0.00,WeatherDisplay:10.37,2013-05-30 04:19:00,
2013-05-30 00:21:00,75.3,69.8,30.06,SW,230,0.0,0.0,83,0.00,CLR,,0.00,WeatherDisplay:10.37,2013-05-30 04:21:00,
2013-05-30 00:22:00,75.2,69.7,30.06,SW,230,0.0,0.0,83,0.00,CLR,,0.00,WeatherDisplay:10.37,2013-05-30 04:22:00,
2013-05-30 00:23:00,75.1,69.9,30.06,SW,230,0.0,0.0,84,0.00,CLR,,0.00,WeatherDisplay:10.37,2013-05-30 04:23:00,
2013-05-30 00:24:00,75.0,69.8,30.06,SW,230,0.0,0.0,84,0.00,CLR,,0.00,WeatherDisplay:10.37,2013-05-30 04:24:00,
2013-05-30 00:26:00,74.8,70.0,30.07,SW,230,0.0,0.0,85,0.00,CLR,,0.00,WeatherDisplay:10.37,2013-05-30 04:26:00,
2013-05-30 00:27:00,74.8,70.0,30.07,SW,230,0.0,0.0,85,0.00,CLR,,0.00,WeatherDisplay:10.37,2013-05-30 04:27:00,
2013-05-30 00:28:00,74.7,70.2,30.06,SW,230,0.0,0.0,86,0.00,CLR,,0.00,WeatherDisplay:10.37,2013-05-30 04:28:00,
2013-05-30 00:29:00,74.6,70.1,30.06,SW,230,0.1,1.1,86,0.00,CLR,,0.00,WeatherDisplay:10.37,2013-05-30 04:29:00,
2013-05-30 00:31:00,74.4,69.9,30.06,SW,230,0.0,0.0,86,0.00,CLR,,0.00,WeatherDisplay:10.37,2013-05-30 04:31:00,
2013-05-30 00:32:00,74.4,69.6,30.06,SW,230,0.0,0.0,85,0.00,CLR,,0.00,WeatherDisplay:10.37,2013-05-30 04:32:00,
2013-05-30 00:33:00,74.4,69.6,30.06,SW,230,0.0,0.0,85,0.00,CLR,,0.00,WeatherDisplay:10.37,2013-05-30 04:33:00,
2013-05-30 00:34:00,74.4,69.6,30.06,SW,230,0.0,0.0,85,0.00,CLR,,0.00,WeatherDisplay:10.37,2013-05-30 04:34:00,
2013-05-30 00:37:00,74.4,69.2,30.06,SW,230,0.0,0.0,84,0.00,CLR,,0.00,WeatherDisplay:10.37,2013-05-30 04:37:00,
2013-05-30 00:38:00,74.2,69.4,30.06,SW,230,0.0,0.0,85,0.00,CLR,,0.00,WeatherDisplay:10.37,2013-05-30 04:38:00,
2013-05-30 00:39:00,73.8,69.0,30.06,SW,230,0.0,0.0,85,0.00,CLR,,0.00,WeatherDisplay:10.37,2013-05-30 04:39:00,
2013-05-30 00:42:00,72.9,68.5,30.06,SW,230,0.0,0.0,86,0.00,CLR,,0.00,WeatherDisplay:10.37,2013-05-30 04:42:00,
2013-05-30 00:43:00,72.9,68.5,30.06,SW,230,0.0,0.0,86,0.00,CLR,,0.00,WeatherDisplay:10.37,2013-05-30 04:43:00,
2013-05-30 00:45:00,73.1,68.7,30.06,SW,229,0.0,0.0,86,0.00,CLR,,0.00,WeatherDisplay:10.37,2013-05-30 04:45:00,
2013-05-30 00:47:00,73.3,68.9,30.06,SW,230,0.0,0.0,86,0.00,CLR,,0.00,WeatherDisplay:10.37,2013-05-30 04:47:00,
2013-05-30 00:48:00,73.4,68.6,30.06,SW,230,0.0,0.0,85,0.00,CLR,,0.00,WeatherDisplay:10.37,2013-05-30 04:48:00,
2013-05-30 00:49:00,73.4,68.6,30.06,SW,230,0.0,0.0,85,0.00,CLR,,0.00,WeatherDisplay:10.37,2013-05-30 04:49:00,
2013-05-30 00:50:00,73.5,69.1,30.06,SW,230,0.0,0.0,86,0.00,CLR,,0.00,WeatherDisplay:10.37,2013-05-30 04:50:00,
2013-05-30 00:52:00,73.5,69.1,30.06,SW,230,0.0,0.0,86,0.00,CLR,,0.00,WeatherDisplay:10.37,2013-05-30 04:52:00,
2013-05-30 00:53:00,73.5,69.1,30.06,SW,230,0.0,0.0,86,0.00,CLR,,0.00,WeatherDisplay:10.37,2013-05-30 04:53:00,
2013-05-30 00:54:00,73.5,68.7,30.06,SW,230,0.0,0.0,85,0.00,CLR,,0.00,WeatherDisplay:10.37,2013-05-30 04:54:00,
2013-05-30 00:55:00,73.4,68.6,30.06,SW,230,0.0,0.0,85,0.00,CLR,,0.00,WeatherDisplay:10.37,2013-05-30 04:55:00,
2013-05-30 00:57:00,73.4,69.0,30.06,SW,229,0.0,0.0,86,0.00,CLR,,0.00,WeatherDisplay:10.37,2013-05-30 04:57:00,
2013-05-30 00:58:00,73.4,68.6,30.06,SW,230,0.0,0.0,85,0.00,CLR,,0.00,WeatherDisplay:10.37,2013-05-30 04:58:00,
2013-05-30 00:59:00,73.4,68.6,30.06,SW,229,0.0,0.0,85,0.00,CLR,,0.00,WeatherDisplay:10.37,2013-05-30 04:59:00,
2013-05-30 01:00:00,73.5,69.1,30.06,SW,230,0.0,0.0,86,0.00,CLR,,0.00,WeatherDisplay:10.37,2013-05-30 05:00:00,
2013-05-30 01:02:00,73.5,68.7,30.06,SW,230,0.0,0.0,85,0.00,CLR,,0.00,WeatherDisplay:10.37,2013-05-30 05:02:00,
2013-05-30 01:03:00,73.5,68.4,30.06,SW,229,0.0,0.0,84,0.00,CLR,,0.00,WeatherDisplay:10.37,2013-05-30 05:03:00,
2013-05-30 01:04:00,73.5,68.4,30.06,SW,230,0.0,0.0,84,0.00,CLR,,0.00,WeatherDisplay:10.37,2013-05-30 05:04:00,
2013-05-30 01:05:00,73.5,69.1,30.06,SW,230,0.0,0.0,86,0.00,CLR,,0.00,WeatherDisplay:10.37,2013-05-30 05:05:00,
2013-05-30 01:07:00,73.3,68.2,30.06,SW,230,0.0,0.0,84,0.00,CLR,,0.00,WeatherDisplay:10.37,2013-05-30 05:07:00,
2013-05-30 01:08:00,73.3,68.2,30.06,SW,230,0.0,0.0,84,0.00,CLR,,0.00,WeatherDisplay:10.37,2013-05-30 05:08:00,
2013-05-30 01:09:00,73.3,68.2,30.06,SW,230,0.0,0.0,84,0.00,CLR,,0.00,WeatherDisplay:10.37,2013-05-30 05:09:00,
2013-05-30 01:10:00,73.2,68.4,30.06,SW,230,0.0,0.0,85,0.00,CLR,,0.00,WeatherDisplay:10.37,2013-05-30 05:10:00,
2013-05-30 01:13:00,73.0,68.2,30.06,SW,230,0.0,0.0,85,0.00,CLR,,0.00,WeatherDisplay:10.37,2013-05-30 05:13:00,
2013-05-30 01:14:00,73.0,68.2,30.06,SW,230,0.0,0.0,85,0.00,CLR,,0.00,WeatherDisplay:10.37,2013-05-30 05:14:00,
2013-05-30 01:15:00,72.9,68.1,30.06,SW,230,0.0,0.0,85,0.00,CLR,,0.00,WeatherDisplay:10.37,2013-05-30 05:15:00,
2013-05-30 01:16:00,72.9,68.1,30.06,SW,229,0.0,0.0,85,0.00,CLR,,0.00,WeatherDisplay:10.37,2013-05-30 05:16:00,
2013-05-30 01:18:00,72.8,69.0,30.06,SW,230,0.0,0.0,88,0.00,CLR,,0.00,WeatherDisplay:10.37,2013-05-30 05:18:00,
2013-05-30 01:19:00,72.7,67.9,30.06,SW,230,0.0,0.0,85,0.00,CLR,,0.00,WeatherDisplay:10.37,2013-05-30 05:19:00,
2013-05-30 01:21:00,72.6,67.8,30.06,SW,230,0.0,0.0,85,0.00,CLR,,0.00,WeatherDisplay:10.37,2013-05-30 05:21:00,
2013-05-30 01:23:00,72.5,68.1,30.06,SW,230,0.0,0.0,86,0.00,CLR,,0.00,WeatherDisplay:10.37,2013-05-30 05:23:00,
2013-05-30 01:24:00,72.4,67.6,30.06,SW,230,0.0,0.0,85,0.00,CLR,,0.00,WeatherDisplay:10.37,2013-05-30 05:24:00,
2013-05-30 01:26:00,72.2,67.8,30.05,SW,230,0.0,0.0,86,0.00,CLR,,0.00,WeatherDisplay:10.37,2013-05-30 05:26:00,
2013-05-30 01:27:00,72.1,67.7,30.05,SW,229,0.0,0.0,86,0.00,CLR,,0.00,WeatherDisplay:10.37,2013-05-30 05:27:00,
2013-05-30 01:29:00,72.0,67.6,30.05,SW,229,0.0,0.0,86,0.00,CLR,,0.00,WeatherDisplay:10.37,2013-05-30 05:29:00,
2013-05-30 01:30:00,72.0,67.9,30.05,SW,229,0.0,0.0,87,0.00,CLR,,0.00,WeatherDisplay:10.37,2013-05-30 05:30:00,
2013-05-30 01:31:00,71.9,67.5,30.05,SW,229,0.0,0.0,86,0.00,CLR,,0.00,WeatherDisplay:10.37,2013-05-30 05:31:00,
2013-05-30 01:32:00,71.9,67.5,30.05,SW,230,0.0,0.0,86,0.00,CLR,,0.00,WeatherDisplay:10.37,2013-05-30 05:32:00,
2013-05-30 01:34:00,71.9,67.5,30.05,SW,229,0.0,0.0,86,0.00,CLR,,0.00,WeatherDisplay:10.37,2013-05-30 05:34:00,
2013-05-30 01:35:00,71.9,67.5,30.05,SW,230,0.0,0.0,86,0.00,CLR,,0.00,WeatherDisplay:10.37,2013-05-30 05:35:00,
2013-05-30 01:36:00,72.0,67.6,30.05,SW,230,0.0,0.0,86,0.00,CLR,,0.00,WeatherDisplay:10.37,2013-05-30 05:36:00,
2013-05-30 01:38:00,71.9,67.5,30.05,SW,230,0.0,0.0,86,0.00,CLR,,0.00,WeatherDisplay:10.37,2013-05-30 05:38:00,
2013-05-30 01:39:00,71.9,67.5,30.05,SW,230,0.0,0.0,86,0.00,CLR,,0.00,WeatherDisplay:10.37,2013-05-30 05:39:00,
2013-05-30 01:40:00,71.8,67.4,30.05,SW,230,0.0,0.0,86,0.00,CLR,,0.00,WeatherDisplay:10.37,2013-05-30 05:40:00,
2013-05-30 01:41:00,71.8,67.4,30.05,SW,230,0.0,0.0,86,0.00,CLR,,0.00,WeatherDisplay:10.37,2013-05-30 05:41:00,
2013-05-30 01:43:00,71.8,67.4,30.05,SW,230,0.0,0.0,86,0.00,CLR,,0.00,WeatherDisplay:10.37,2013-05-30 05:43:00,
2013-05-30 01:44:00,71.8,67.4,30.05,SW,230,0.0,0.0,86,0.00,CLR,,0.00,WeatherDisplay:10.37,2013-05-30 05:44:00,
2013-05-30 01:45:00,71.7,67.3,30.05,SW,230,0.0,0.0,86,0.00,CLR,,0.00,WeatherDisplay:10.37,2013-05-30 05:45:00,
2013-05-30 01:47:00,71.7,67.3,30.05,SW,229,0.0,0.0,86,0.00,CLR,,0.00,WeatherDisplay:10.37,2013-05-30 05:47:00,
2013-05-30 01:48:00,71.6,67.2,30.05,SW,230,0.0,0.0,86,0.00,CLR,,0.00,WeatherDisplay:10.37,2013-05-30 05:48:00,
2013-05-30 01:50:00,71.6,67.2,30.05,SW,230,0.0,0.0,86,0.00,CLR,,0.00,WeatherDisplay:10.37,2013-05-30 05:50:00,
2013-05-30 01:52:00,71.5,67.4,30.05,SW,230,0.0,0.0,87,0.00,CLR,,0.00,WeatherDisplay:10.37,2013-05-30 05:52:00,
2013-05-30 01:53:00,71.4,67.3,30.06,SW,230,0.0,0.0,87,0.00,CLR,,0.00,WeatherDisplay:10.37,2013-05-30 05:53:00,
2013-05-30 01:55:00,71.4,67.0,30.06,SW,230,0.0,0.0,86,0.00,CLR,,0.00,WeatherDisplay:10.37,2013-05-30 05:55:00,
2013-05-30 01:56:00,71.4,67.0,30.06,SW,229,0.0,0.0,86,0.00,CLR,,0.00,WeatherDisplay:10.37,2013-05-30 05:56:00,
2013-05-30 01:57:00,71.4,67.0,30.06,SW,230,0.0,0.0,86,0.00,CLR,,0.00,WeatherDisplay:10.37,2013-05-30 05:57:00,
2013-05-30 01:58:00,71.3,66.9,30.06,SW,230,0.0,0.0,86,0.00,CLR,,0.00,WeatherDisplay:10.37,2013-05-30 05:58:00,
2013-05-30 02:00:00,71.2,66.8,30.06,SW,230,0.0,0.0,86,0.00,CLR,,0.00,WeatherDisplay:10.37,2013-05-30 06:00:00,
2013-05-30 02:01:00,71.1,66.7,30.06,SW,229,0.0,0.0,86,0.00,CLR,,0.00,WeatherDisplay:10.37,2013-05-30 06:01:00,
2013-05-30 02:02:00,71.1,66.7,30.06,SW,229,0.0,0.0,86,0.00,CLR,,0.00,WeatherDisplay:10.37,2013-05-30 06:02:00,
2013-05-30 02:04:00,71.0,66.9,30.06,SW,229,0.0,0.0,87,0.00,CLR,,0.00,WeatherDisplay:10.37,2013-05-30 06:04:00,
2013-05-30 02:05:00,70.9,66.5,30.06,SW,230,0.0,0.0,86,0.00,CLR,,0.00,WeatherDisplay:10.37,2013-05-30 06:05:00,
2013-05-30 02:07:00,70.7,66.6,30.06,SW,230,0.0,0.0,87,0.00,CLR,,0.00,WeatherDisplay:10.37,2013-05-30 06:07:00,
2013-05-30 02:09:00,70.6,66.9,30.06,SW,230,0.0,0.0,88,0.00,CLR,,0.00,WeatherDisplay:10.37,2013-05-30 06:09:00,
2013-05-30 02:10:00,70.6,66.9,30.06,SW,230,0.0,0.0,88,0.00,CLR,,0.00,WeatherDisplay:10.37,2013-05-30 06:10:00,
2013-05-30 02:11:00,70.6,66.9,30.06,SW,230,0.0,0.0,88,0.00,CLR,,0.00,WeatherDisplay:10.37,2013-05-30 06:11:00,
2013-05-30 02:12:00,70.5,66.8,30.06,SW,230,0.0,0.0,88,0.00,CLR,,0.00,WeatherDisplay:10.37,2013-05-30 06:12:00,
2013-05-30 02:14:00,70.5,66.4,30.06,SW,230,0.0,0.0,87,0.00,CLR,,0.00,WeatherDisplay:10.37,2013-05-30 06:14:00,
2013-05-30 02:15:00,70.5,66.8,30.06,SW,230,0.0,0.0,88,0.00,CLR,,0.00,WeatherDisplay:10.37,2013-05-30 06:15:00,
2013-05-30 02:16:00,70.4,66.7,30.06,SW,230,0.0,0.0,88,0.00,CLR,,0.00,WeatherDisplay:10.37,2013-05-30 06:16:00,
2013-05-30 02:17:00,70.4,67.0,30.06,SW,230,0.0,0.0,89,0.00,CLR,,0.00,WeatherDisplay:10.37,2013-05-30 06:17:00,
2013-05-30 02:18:00,70.4,67.0,30.06,SW,230,0.0,0.0,89,0.00,CLR,,0.00,WeatherDisplay:10.37,2013-05-30 06:18:00,
2013-05-30 02:20:00,70.3,67.2,30.06,SW,230,0.0,0.0,90,0.00,CLR,,0.00,WeatherDisplay:10.37,2013-05-30 06:20:00,
2013-05-30 02:21:00,70.3,67.2,30.06,SW,229,0.0,0.0,90,0.00,CLR,,0.00,WeatherDisplay:10.37,2013-05-30 06:21:00,
2013-05-30 02:22:00,70.3,67.2,30.06,SW,230,0.0,0.0,90,0.00,CLR,,0.00,WeatherDisplay:10.37,2013-05-30 06:22:00,
2013-05-30 02:23:00,70.3,67.2,30.06,SW,230,0.0,0.0,90,0.00,CLR,,0.00,WeatherDisplay:10.37,2013-05-30 06:23:00,
2013-05-30 02:25:00,70.3,66.9,30.06,SW,230,0.0,0.0,89,0.00,CLR,,0.00,WeatherDisplay:10.37,2013-05-30 06:25:00,
2013-05-30 02:26:00,70.3,66.6,30.06,SW,229,0.0,0.0,88,0.00,CLR,,0.00,WeatherDisplay:10.37,2013-05-30 06:26:00,
2013-05-30 02:27:00,70.2,66.8,30.06,SW,230,0.0,0.0,89,0.00,CLR,,0.00,WeatherDisplay:10.37,2013-05-30 06:27:00,
2013-05-30 02:28:00,70.2,66.8,30.06,SW,230,0.0,0.0,89,0.00,CLR,,0.00,WeatherDisplay:10.37,2013-05-30 06:28:00,
2013-05-30 02:30:00,70.2,66.5,30.06,SW,229,0.0,0.0,88,0.00,CLR,,0.00,WeatherDisplay:10.37,2013-05-30 06:30:00,
2013-05-30 02:31:00,70.2,66.5,30.06,SW,230,0.0,0.0,88,0.00,CLR,,0.00,WeatherDisplay:10.37,2013-05-30 06:31:00,
2013-05-30 02:32:00,70.2,66.1,30.06,SW,230,0.0,0.0,87,0.00,CLR,,0.00,WeatherDisplay:10.37,2013-05-30 06:32:00,
2013-05-30 02:33:00,70.2,66.1,30.06,SW,229,0.0,0.0,87,0.00,CLR,,0.00,WeatherDisplay:10.37,2013-05-30 06:33:00,
2013-05-30 02:35:00,70.2,66.5,30.06,SW,230,0.0,0.0,88,0.00,CLR,,0.00,WeatherDisplay:10.37,2013-05-30 06:35:00,
2013-05-30 02:36:00,70.1,66.0,30.06,SW,230,0.0,0.0,87,0.00,CLR,,0.00,WeatherDisplay:10.37,2013-05-30 06:36:00,
2013-05-30 02:38:00,70.0,66.0,30.07,SW,230,0.0,0.0,87,0.00,CLR,,0.00,WeatherDisplay:10.37,2013-05-30 06:38:00,
2013-05-30 02:41:00,69.6,66.2,30.06,SW,230,0.0,0.0,89,0.00,CLR,,0.00,WeatherDisplay:10.37,2013-05-30 06:41:00,
2013-05-30 02:42:00,69.7,66.6,30.06,SW,230,0.0,0.0,90,0.00,CLR,,0.00,WeatherDisplay:10.37,2013-05-30 06:42:00,
2013-05-30 02:43:00,69.6,66.5,30.07,SW,229,0.0,0.0,90,0.00,CLR,,0.00,WeatherDisplay:10.37,2013-05-30 06:43:00,
2013-05-30 02:46:00,69.7,66.6,30.06,SW,230,0.0,0.0,90,0.00,CLR,,0.00,WeatherDisplay:10.37,2013-05-30 06:46:00,
2013-05-30 02:48:00,69.6,67.2,30.06,SW,230,0.0,0.0,92,0.00,CLR,,0.00,WeatherDisplay:10.37,2013-05-30 06:48:00,
2013-05-30 02:49:00,69.6,66.5,30.07,SW,230,0.0,0.0,90,0.00,CLR,,0.00,WeatherDisplay:10.37,2013-05-30 06:49:00,
2013-05-30 02:51:00,69.6,66.5,30.07,SW,230,0.0,0.0,90,0.00,CLR,,0.00,WeatherDisplay:10.37,2013-05-30 06:51:00,
2013-05-30 02:52:00,69.6,66.5,30.07,SW,230,0.0,0.0,90,0.00,CLR,,0.00,WeatherDisplay:10.37,2013-05-30 06:52:00,
2013-05-30 02:53:00,69.6,66.5,30.07,SW,230,0.0,0.0,90,0.00,CLR,,0.00,WeatherDisplay:10.37,2013-05-30 06:53:00,
2013-05-30 02:54:00,69.6,66.5,30.07,SW,230,0.0,0.0,90,0.00,CLR,,0.00,WeatherDisplay:10.37,2013-05-30 06:54:00,
2013-05-30 02:56:00,69.6,66.2,30.07,SW,230,0.0,0.0,89,0.00,CLR,,0.00,WeatherDisplay:10.37,2013-05-30 06:56:00,
2013-05-30 02:58:00,69.6,66.2,30.07,SW,230,0.0,0.0,89,0.00,CLR,,0.00,WeatherDisplay:10.37,2013-05-30 06:58:00,
2013-05-30 02:59:00,69.6,66.2,30.07,SW,230,0.0,0.0,89,0.00,CLR,,0.00,WeatherDisplay:10.37,2013-05-30 06:59:00,
2013-05-30 03:02:00,69.3,65.3,30.07,SW,229,0.0,0.0,87,0.00,CLR,,0.00,WeatherDisplay:10.37,2013-05-30 07:02:00,
2013-05-30 03:03:00,69.2,65.5,30.07,SW,230,0.0,0.0,88,0.00,CLR,,0.00,WeatherDisplay:10.37,2013-05-30 07:03:00,
2013-05-30 03:04:00,69.1,65.7,30.07,SW,230,0.0,0.0,89,0.00,CLR,,0.00,WeatherDisplay:10.37,2013-05-30 07:04:00,
2013-05-30 03:07:00,69.0,65.6,30.07,SW,230,0.0,0.0,89,0.00,CLR,,0.00,WeatherDisplay:10.37,2013-05-30 07:07:00,
2013-05-30 03:08:00,69.0,65.6,30.07,SW,230,0.0,0.0,89,0.00,CLR,,0.00,WeatherDisplay:10.37,2013-05-30 07:08:00,
2013-05-30 03:09:00,69.1,65.7,30.07,SW,229,0.0,0.0,89,0.00,CLR,,0.00,WeatherDisplay:10.37,2013-05-30 07:09:00,
2013-05-30 03:12:00,69.0,65.3,30.07,SW,230,0.0,0.0,88,0.00,CLR,,0.00,WeatherDisplay:10.37,2013-05-30 07:12:00,
2013-05-30 03:13:00,69.0,65.3,30.07,SW,230,0.0,0.0,88,0.00,CLR,,0.00,WeatherDisplay:10.37,2013-05-30 07:13:00,
2013-05-30 03:14:00,69.0,65.6,30.07,SW,229,0.0,0.0,89,0.00,CLR,,0.00,WeatherDisplay:10.37,2013-05-30 07:14:00,
2013-05-30 03:15:00,69.0,65.3,30.07,SW,229,0.0,0.0,88,0.00,CLR,,0.00,WeatherDisplay:10.37,2013-05-30 07:15:00,
2013-05-30 03:17:00,68.7,65.3,30.07,SW,230,0.0,0.0,89,0.00,CLR,,0.00,WeatherDisplay:10.37,2013-05-30 07:17:00,
2013-05-30 03:19:00,68.7,65.3,30.07,SW,230,0.0,0.0,89,0.00,CLR,,0.00,WeatherDisplay:10.37,2013-05-30 07:19:00,
2013-05-30 03:20:00,68.5,65.1,30.08,SW,230,0.0,0.0,89,0.00,CLR,,0.00,WeatherDisplay:10.37,2013-05-30 07:20:00,
2013-05-30 03:23:00,68.5,65.1,30.08,SW,230,0.0,0.0,89,0.00,CLR,,0.00,WeatherDisplay:10.37,2013-05-30 07:23:00,
2013-05-30 03:24:00,68.5,65.4,30.08,SW,230,0.0,0.0,90,0.00,CLR,,0.00,WeatherDisplay:10.37,2013-05-30 07:24:00,
2013-05-30 03:25:00,68.5,65.4,30.07,SW,230,0.0,0.0,90,0.00,CLR,,0.00,WeatherDisplay:10.37,2013-05-30 07:25:00,
2013-05-30 03:26:00,68.5,65.4,30.07,SW,230,0.0,0.0,90,0.00,CLR,,0.00,WeatherDisplay:10.37,2013-05-30 07:26:00,
2013-05-30 03:28:00,68.5,65.4,30.07,SW,229,0.0,0.0,90,0.00,CLR,,0.00,WeatherDisplay:10.37,2013-05-30 07:28:00,
2013-05-30 03:29:00,68.5,65.4,30.07,SW,230,0.0,0.0,90,0.00,CLR,,0.00,WeatherDisplay:10.37,2013-05-30 07:29:00,
2013-05-30 03:30:00,68.5,65.4,30.07,SW,230,0.0,0.0,90,0.00,CLR,,0.00,WeatherDisplay:10.37,2013-05-30 07:30:00,
2013-05-30 03:31:00,68.5,65.4,30.07,SW,230,0.0,0.0,90,0.00,CLR,,0.00,WeatherDisplay:10.37,2013-05-30 07:31:00,
2013-05-30 03:33:00,68.5,65.4,30.07,SW,230,0.0,0.0,90,0.00,CLR,,0.00,WeatherDisplay:10.37,2013-05-30 07:33:00,
2013-05-30 03:34:00,68.5,65.4,30.07,SW,230,0.0,0.0,90,0.00,CLR,,0.00,WeatherDisplay:10.37,2013-05-30 07:34:00,
2013-05-30 03:35:00,68.4,65.4,30.07,SW,230,0.0,0.0,90,0.00,CLR,,0.00,WeatherDisplay:10.37,2013-05-30 07:35:00,
2013-05-30 03:37:00,68.3,65.3,30.07,SW,230,0.0,0.0,90,0.00,CLR,,0.00,WeatherDisplay:10.37,2013-05-30 07:37:00,
2013-05-30 03:38:00,68.2,65.5,30.07,SW,230,0.0,0.0,91,0.00,CLR,,0.00,WeatherDisplay:10.37,2013-05-30 07:38:00,
2013-05-30 03:39:00,68.1,65.4,30.07,SW,230,0.0,0.0,91,0.00,CLR,,0.00,WeatherDisplay:10.37,2013-05-30 07:39:00,
2013-05-30 03:40:00,68.1,65.1,30.07,SW,230,0.0,0.0,90,0.00,CLR,,0.00,WeatherDisplay:10.37,2013-05-30 07:40:00,
2013-05-30 03:42:00,68.0,65.6,30.07,SW,230,0.0,0.0,92,0.00,CLR,,0.00,WeatherDisplay:10.37,2013-05-30 07:42:00,
2013-05-30 03:43:00,68.0,65.6,30.07,SW,230,0.0,0.0,92,0.00,CLR,,0.00,WeatherDisplay:10.37,2013-05-30 07:43:00,
2013-05-30 03:44:00,68.0,65.3,30.07,SW,230,0.0,0.0,91,0.00,CLR,,0.00,WeatherDisplay:10.37,2013-05-30 07:44:00,
2013-05-30 03:45:00,68.0,65.6,30.07,SW,230,0.0,0.0,92,0.00,CLR,,0.00,WeatherDisplay:10.37,2013-05-30 07:45:00,
2013-05-30 03:48:00,67.9,65.2,30.07,SW,230,0.0,0.0,91,0.00,CLR,,0.00,WeatherDisplay:10.37,2013-05-30 07:48:00,
2013-05-30 03:50:00,67.8,65.1,30.07,SW,230,0.0,0.0,91,0.00,CLR,,0.00,WeatherDisplay:10.37,2013-05-30 07:50:00,
2013-05-30 03:51:00,67.8,65.4,30.07,SW,230,0.0,1.1,92,0.00,CLR,,0.00,WeatherDisplay:10.37,2013-05-30 07:51:00,
2013-05-30 03:53:00,67.6,65.2,30.08,SW,230,0.0,0.0,92,0.00,CLR,,0.00,WeatherDisplay:10.37,2013-05-30 07:53:00,
2013-05-30 03:55:00,67.6,65.2,30.08,SW,230,0.0,0.0,92,0.00,CLR,,0.00,WeatherDisplay:10.37,2013-05-30 07:55:00,
2013-05-30 03:56:00,67.5,64.8,30.07,SW,229,0.0,0.0,91,0.00,CLR,,0.00,WeatherDisplay:10.37,2013-05-30 07:56:00,
2013-05-30 03:58:00,67.5,64.8,30.08,SW,230,0.0,0.0,91,0.00,CLR,,0.00,WeatherDisplay:10.37,2013-05-30 07:58:00,
2013-05-30 03:59:00,67.5,64.8,30.08,SW,230,0.0,0.0,91,0.00,CLR,,0.00,WeatherDisplay:10.37,2013-05-30 07:59:00,
2013-05-30 04:00:00,67.5,64.8,30.07,SW,230,0.0,0.0,91,0.00,CLR,,0.00,WeatherDisplay:10.37,2013-05-30 08:00:00,
2013-05-30 04:01:00,67.5,64.8,30.07,SW,230,0.0,0.0,91,0.00,SCT,,0.00,WeatherDisplay:10.37,2013-05-30 08:01:00,
2013-05-30 04:04:00,67.5,64.5,30.08,SW,230,0.0,0.0,90,0.00,SCT,,0.00,WeatherDisplay:10.37,2013-05-30 08:04:00,
2013-05-30 04:05:00,67.5,64.8,30.08,SW,230,0.0,0.0,91,0.00,SCT,,0.00,WeatherDisplay:10.37,2013-05-30 08:05:00,
2013-05-30 04:06:00,67.5,64.8,30.08,SW,230,0.0,0.0,91,0.00,SCT,,0.00,WeatherDisplay:10.37,2013-05-30 08:06:00,
2013-05-30 04:07:00,67.5,64.8,30.08,SW,229,0.0,0.0,91,0.00,SCT,,0.00,WeatherDisplay:10.37,2013-05-30 08:07:00,
2013-05-30 04:09:00,67.5,64.5,30.08,SW,230,0.0,0.0,90,0.00,SCT,,0.00,WeatherDisplay:10.37,2013-05-30 08:09:00,
2013-05-30 04:10:00,67.5,64.5,30.08,SW,230,0.0,0.0,90,0.00,SCT,,0.00,WeatherDisplay:10.37,2013-05-30 08:10:00,
2013-05-30 04:11:00,67.5,64.5,30.08,SW,230,0.0,0.0,90,0.00,SCT,,0.00,WeatherDisplay:10.37,2013-05-30 08:11:00,
2013-05-30 04:12:00,67.4,64.4,30.08,SW,230,0.0,0.0,90,0.00,SCT,,0.00,WeatherDisplay:10.37,2013-05-30 08:12:00,
2013-05-30 04:14:00,67.4,64.4,30.08,SW,229,0.0,0.0,90,0.00,SCT,,0.00,WeatherDisplay:10.37,2013-05-30 08:14:00,
2013-05-30 04:15:00,67.4,64.4,30.08,SW,230,0.0,0.0,90,0.00,SCT,,0.00,WeatherDisplay:10.37,2013-05-30 08:15:00,
2013-05-30 04:16:00,67.4,64.4,30.08,SW,229,0.0,0.0,90,0.00,SCT,,0.00,WeatherDisplay:10.37,2013-05-30 08:16:00,
2013-05-30 04:17:00,67.4,64.4,30.08,SW,230,0.0,0.0,90,0.00,SCT,,0.00,WeatherDisplay:10.37,2013-05-30 08:17:00,
2013-05-30 04:19:00,67.3,64.3,30.08,SW,230,0.0,0.0,90,0.00,SCT,,0.00,WeatherDisplay:10.37,2013-05-30 08:19:00,
2013-05-30 04:21:00,67.2,64.5,30.08,SW,230,0.0,0.0,91,0.00,SCT,,0.00,WeatherDisplay:10.37,2013-05-30 08:21:00,
2013-05-30 04:22:00,67.1,64.4,30.08,SW,230,0.0,0.0,91,0.00,SCT,,0.00,WeatherDisplay:10.37,2013-05-30 08:22:00,
2013-05-30 04:24:00,67.0,64.3,30.08,SW,230,0.0,0.0,91,0.00,SCT,,0.00,WeatherDisplay:10.37,2013-05-30 08:24:00,
2013-05-30 04:25:00,67.0,64.3,30.08,SW,230,0.0,0.0,91,0.00,SCT,,0.00,WeatherDisplay:10.37,2013-05-30 08:25:00,
2013-05-30 04:26:00,66.9,64.2,30.09,SW,229,0.0,0.0,91,0.00,SCT,,0.00,WeatherDisplay:10.37,2013-05-30 08:26:00,
2013-05-30 04:27:00,66.8,64.1,30.08,SW,230,0.0,0.0,91,0.00,SCT,,0.00,WeatherDisplay:10.37,2013-05-30 08:27:00,
2013-05-30 04:29:00,66.8,64.4,30.09,SW,230,0.0,0.0,92,0.00,SCT,,0.00,WeatherDisplay:10.37,2013-05-30 08:29:00,
2013-05-30 04:30:00,66.8,64.4,30.08,SW,230,0.0,0.0,92,0.00,SCT,,0.00,WeatherDisplay:10.37,2013-05-30 08:30:00,
2013-05-30 04:31:00,66.8,64.4,30.08,SW,230,0.0,0.0,92,0.00,SCT,,0.00,WeatherDisplay:10.37,2013-05-30 08:31:00,
2013-05-30 04:32:00,66.8,64.4,30.09,SW,230,0.0,0.0,92,0.00,SCT,,0.00,WeatherDisplay:10.37,2013-05-30 08:32:00,
2013-05-30 04:34:00,66.7,64.6,30.09,SW,230,0.0,0.0,93,0.00,SCT,,0.00,WeatherDisplay:10.37,2013-05-30 08:34:00,
2013-05-30 04:35:00,66.7,64.6,30.09,SW,230,0.0,0.0,93,0.00,SCT,,0.00,WeatherDisplay:10.37,2013-05-30 08:35:00,
2013-05-30 04:36:00,66.7,64.9,30.09,SW,230,0.0,0.0,94,0.00,SCT,,0.00,WeatherDisplay:10.37,2013-05-30 08:36:00,
2013-05-30 04:37:00,66.7,64.6,30.09,SW,230,0.0,0.0,93,0.00,SCT,,0.00,WeatherDisplay:10.37,2013-05-30 08:37:00,
2013-05-30 04:38:00,66.7,64.6,30.09,SW,230,0.0,0.0,93,0.00,SCT,,0.00,WeatherDisplay:10.37,2013-05-30 08:38:00,
2013-05-30 04:39:00,66.6,64.5,30.09,SW,230,0.0,0.0,93,0.00,SCT,,0.00,WeatherDisplay:10.37,2013-05-30 08:39:00,
2013-05-30 04:40:00,66.6,64.5,30.09,SW,230,0.0,0.0,93,0.00,SCT,,0.00,WeatherDisplay:10.37,2013-05-30 08:40:00,
2013-05-30 04:41:00,66.6,64.8,30.09,SW,229,0.0,0.0,94,0.00,SCT,,0.00,WeatherDisplay:10.37,2013-05-30 08:41:00,
2013-05-30 04:42:00,66.6,64.8,30.09,SW,230,0.0,0.0,94,0.00,SCT,,0.00,WeatherDisplay:10.37,2013-05-30 08:42:00,
2013-05-30 04:44:00,66.4,64.6,30.09,SW,230,0.0,0.0,94,0.00,SCT,,0.00,WeatherDisplay:10.37,2013-05-30 08:44:00,
2013-05-30 04:45:00,66.4,64.6,30.09,SW,230,0.0,0.0,94,0.00,SCT,,0.00,WeatherDisplay:10.37,2013-05-30 08:45:00,
2013-05-30 04:47:00,66.4,64.9,30.09,SW,230,0.0,0.0,95,0.00,SCT,,0.00,WeatherDisplay:10.37,2013-05-30 08:47:00,
2013-05-30 04:49:00,66.5,64.7,30.09,SW,230,0.0,0.0,94,0.00,SCT,,0.00,WeatherDisplay:10.37,2013-05-30 08:49:00,
2013-05-30 04:50:00,66.5,64.7,30.10,SW,230,0.0,0.0,94,0.00,SCT,,0.00,WeatherDisplay:10.37,2013-05-30 08:50:00,
2013-05-30 04:52:00,66.5,64.7,30.10,SW,230,0.0,0.0,94,0.00,SCT,,0.00,WeatherDisplay:10.37,2013-05-30 08:52:00,
2013-05-30 04:54:00,66.5,64.4,30.10,SW,230,0.0,0.0,93,0.00,SCT,,0.00,WeatherDisplay:10.37,2013-05-30 08:54:00,
2013-05-30 04:55:00,66.5,64.4,30.10,SW,230,0.0,0.0,93,0.00,SCT,,0.00,WeatherDisplay:10.37,2013-05-30 08:55:00,
2013-05-30 04:57:00,66.5,64.4,30.10,SW,230,0.0,0.0,93,0.00,SCT,,0.00,WeatherDisplay:10.37,2013-05-30 08:57:00,
2013-05-30 04:58:00,66.5,64.4,30.10,SW,230,0.0,0.0,93,0.00,SCT,,0.00,WeatherDisplay:10.37,2013-05-30 08:58:00,
2013-05-30 04:59:00,66.5,64.7,30.10,SW,230,0.0,0.0,94,0.00,SCT,,0.00,WeatherDisplay:10.37,2013-05-30 08:59:00,
2013-05-30 05:00:00,66.5,64.1,30.10,SW,230,0.0,0.0,92,0.00,SCT,,0.00,WeatherDisplay:10.37,2013-05-30 09:00:00,
2013-05-30 05:03:00,66.3,63.9,30.10,SW,230,0.0,0.0,92,0.00,SCT,,0.00,WeatherDisplay:10.37,2013-05-30 09:03:00,
2013-05-30 05:04:00,66.3,63.9,30.10,SW,230,0.0,0.0,92,0.00,SCT,,0.00,WeatherDisplay:10.37,2013-05-30 09:04:00,
2013-05-30 05:05:00,66.2,63.8,30.10,SW,230,0.0,0.0,92,0.00,SCT,,0.00,WeatherDisplay:10.37,2013-05-30 09:05:00,
2013-05-30 05:08:00,66.0,63.9,30.10,SW,230,0.0,0.0,93,0.00,SCT,,0.00,WeatherDisplay:10.37,2013-05-30 09:08:00,
2013-05-30 05:09:00,66.0,64.2,30.10,SW,230,0.0,0.0,94,0.00,SCT,,0.00,WeatherDisplay:10.37,2013-05-30 09:09:00,
2013-05-30 05:11:00,66.0,64.2,30.10,SW,230,0.0,0.0,94,0.00,SCT,,0.00,WeatherDisplay:10.37,2013-05-30 09:11:00,
2013-05-30 05:13:00,66.0,64.2,30.10,SW,230,0.0,0.0,94,0.00,SCT,,0.00,WeatherDisplay:10.37,2013-05-30 09:13:00,
2013-05-30 05:14:00,66.0,64.2,30.10,SW,230,0.0,0.0,94,0.00,SCT,,0.00,WeatherDisplay:10.37,2013-05-30 09:14:00,
2013-05-30 05:16:00,66.0,64.2,30.10,SW,230,0.0,0.0,94,0.00,SCT,,0.00,WeatherDisplay:10.37,2013-05-30 09:16:00,
2013-05-30 05:18:00,66.0,64.2,30.10,SW,230,0.0,0.0,94,0.00,SCT,,0.00,WeatherDisplay:10.37,2013-05-30 09:18:00,
2013-05-30 05:19:00,66.0,63.6,30.10,SW,230,0.0,0.0,92,0.00,SCT,,0.00,WeatherDisplay:10.37,2013-05-30 09:19:00,
2013-05-30 05:21:00,65.9,63.5,30.10,SW,230,0.0,0.0,92,0.00,SCT,,0.00,WeatherDisplay:10.37,2013-05-30 09:21:00,
2013-05-30 05:22:00,65.9,63.5,30.10,SW,230,0.0,0.0,92,0.00,SCT,,0.00,WeatherDisplay:10.37,2013-05-30 09:22:00,
2013-05-30 05:23:00,65.8,63.4,30.10,SW,230,0.0,0.0,92,0.00,SCT,,0.00,WeatherDisplay:10.37,2013-05-30 09:23:00,
2013-05-30 05:24:00,65.8,63.4,30.10,SW,230,0.0,0.0,92,0.00,SCT,,0.00,WeatherDisplay:10.37,2013-05-30 09:24:00,
2013-05-30 05:25:00,65.7,63.6,30.10,SW,230,0.0,0.0,93,0.00,SCT,,0.00,WeatherDisplay:10.37,2013-05-30 09:25:00,
2013-05-30 05:26:00,65.7,63.6,30.10,SW,230,0.0,0.0,93,0.00,SCT,,0.00,WeatherDisplay:10.37,2013-05-30 09:26:00,
2013-05-30 05:28:00,65.6,63.8,30.10,SW,229,0.0,0.0,94,0.00,SCT,,0.00,WeatherDisplay:10.37,2013-05-30 09:28:00,
2013-05-30 05:29:00,65.6,63.8,30.11,SW,230,0.0,0.0,94,0.00,SCT,,0.00,WeatherDisplay:10.37,2013-05-30 09:29:00,
2013-05-30 05:30:00,65.5,63.7,30.10,SW,230,0.0,0.0,94,0.00,SCT,,0.00,WeatherDisplay:10.37,2013-05-30 09:30:00,
2013-05-30 05:31:00,65.5,63.7,30.10,SW,230,0.0,0.0,94,0.00,SCT,,0.00,WeatherDisplay:10.37,2013-05-30 09:31:00,
2013-05-30 05:33:00,65.5,63.7,30.10,SW,230,0.0,0.0,94,0.00,SCT,,0.00,WeatherDisplay:10.37,2013-05-30 09:33:00,
2013-05-30 05:34:00,65.5,63.7,30.10,SW,230,0.0,0.0,94,0.00,SCT,,0.00,WeatherDisplay:10.37,2013-05-30 09:34:00,
2013-05-30 05:36:00,65.5,63.7,30.10,SW,230,0.0,0.0,94,0.00,SCT,,0.00,WeatherDisplay:10.37,2013-05-30 09:36:00,
2013-05-30 05:39:00,65.5,63.4,30.11,SW,230,0.0,0.0,93,0.00,SCT,,0.00,WeatherDisplay:10.37,2013-05-30 09:39:00,
2013-05-30 05:41:00,65.6,63.5,30.11,SW,230,0.0,0.0,93,0.00,SCT,,0.00,WeatherDisplay:10.37,2013-05-30 09:41:00,
2013-05-30 05:44:00,65.5,63.4,30.11,SW,230,0.0,0.0,93,0.00,SCT,,0.00,WeatherDisplay:10.37,2013-05-30 09:44:00,
2013-05-30 05:46:00,65.5,63.4,30.11,SW,230,0.0,0.0,93,0.00,SCT,,0.00,WeatherDisplay:10.37,2013-05-30 09:46:00,
2013-05-30 05:47:00,65.5,63.4,30.11,SW,230,0.0,0.0,93,0.00,SCT,,0.00,WeatherDisplay:10.37,2013-05-30 09:47:00,
2013-05-30 05:49:00,65.4,63.3,30.11,SW,230,0.0,0.0,93,0.00,SCT,,0.00,WeatherDisplay:10.37,2013-05-30 09:49:00,
2013-05-30 05:50:00,65.4,63.3,30.11,SW,230,0.0,0.0,93,0.00,SCT,,0.00,WeatherDisplay:10.37,2013-05-30 09:50:00,
2013-05-30 05:52:00,65.3,63.2,30.11,SW,230,0.0,0.0,93,0.00,SCT,,0.00,WeatherDisplay:10.37,2013-05-30 09:52:00,
2013-05-30 05:54:00,65.2,63.4,30.11,SW,230,0.0,0.0,94,0.00,SCT,,0.00,WeatherDisplay:10.37,2013-05-30 09:54:00,
2013-05-30 05:55:00,65.1,63.3,30.11,SW,230,0.0,0.0,94,0.00,SCT,,0.00,WeatherDisplay:10.37,2013-05-30 09:55:00,
2013-05-30 05:57:00,65.2,63.1,30.11,SW,230,0.0,0.0,93,0.00,SCT,,0.00,WeatherDisplay:10.37,2013-05-30 09:57:00,
2013-05-30 05:59:00,65.1,62.7,30.11,SW,230,0.0,0.0,92,0.00,SCT,,0.00,WeatherDisplay:10.37,2013-05-30 09:59:00,
2013-05-30 06:00:00,65.0,62.9,30.11,SW,230,0.0,0.0,93,0.00,SCT,,0.00,WeatherDisplay:10.37,2013-05-30 10:00:00,
2013-05-30 06:02:00,64.9,62.8,30.11,SW,230,0.0,0.0,93,0.00,BKN,,0.00,WeatherDisplay:10.37,2013-05-30 10:02:00,
2013-05-30 06:03:00,64.9,62.8,30.11,SW,230,0.0,0.0,93,0.00,BKN,,0.00,WeatherDisplay:10.37,2013-05-30 10:03:00,
2013-05-30 06:04:00,64.8,62.7,30.11,SW,230,0.0,0.0,93,0.00,BKN,,0.00,WeatherDisplay:10.37,2013-05-30 10:04:00,
2013-05-30 06:05:00,64.8,62.7,30.11,SW,230,0.0,0.0,93,0.00,BKN,,0.00,WeatherDisplay:10.37,2013-05-30 10:05:00,
2013-05-30 06:07:00,64.8,62.7,30.11,SW,230,0.0,0.0,93,0.00,BKN,,0.00,WeatherDisplay:10.37,2013-05-30 10:07:00,
2013-05-30 06:08:00,64.7,62.6,30.11,SW,230,0.0,0.0,93,0.00,BKN,,0.00,WeatherDisplay:10.37,2013-05-30 10:08:00,
2013-05-30 06:09:00,64.7,62.6,30.11,SW,230,0.0,0.0,93,0.00,BKN,,0.00,WeatherDisplay:10.37,2013-05-30 10:09:00,
2013-05-30 06:10:00,64.6,62.5,30.11,SW,230,0.0,0.0,93,0.00,BKN,,0.00,WeatherDisplay:10.37,2013-05-30 10:10:00,
2013-05-30 06:11:00,64.6,62.5,30.11,SW,230,0.0,0.0,93,0.00,BKN,,0.00,WeatherDisplay:10.37,2013-05-30 10:11:00,
2013-05-30 06:12:00,64.6,62.5,30.11,SW,230,0.0,0.0,93,0.00,BKN,,0.00,WeatherDisplay:10.37,2013-05-30 10:12:00,
2013-05-30 06:14:00,64.6,62.5,30.11,SW,230,0.0,0.0,93,0.00,BKN,,0.00,WeatherDisplay:10.37,2013-05-30 10:14:00,
2013-05-30 06:15:00,64.5,62.4,30.11,SW,230,0.0,0.0,93,0.00,BKN,,0.00,WeatherDisplay:10.37,2013-05-30 10:15:00,
2013-05-30 06:16:00,64.5,62.4,30.12,SW,230,0.0,0.0,93,0.00,BKN,,0.00,WeatherDisplay:10.37,2013-05-30 10:16:00,
2013-05-30 06:17:00,64.4,62.6,30.11,SW,230,0.0,0.0,94,0.00,BKN,,0.00,WeatherDisplay:10.37,2013-05-30 10:17:00,
2013-05-30 06:19:00,64.4,62.6,30.11,SW,230,0.0,0.0,94,0.00,BKN,,0.00,WeatherDisplay:10.37,2013-05-30 10:19:00,
2013-05-30 06:20:00,64.4,62.3,30.12,SW,230,0.0,0.0,93,0.00,BKN,,0.00,WeatherDisplay:10.37,2013-05-30 10:20:00,
2013-05-30 06:21:00,64.4,62.3,30.12,SW,230,0.0,0.0,93,0.00,BKN,,0.00,WeatherDisplay:10.37,2013-05-30 10:21:00,
2013-05-30 06:22:00,64.4,62.3,30.12,SW,230,0.0,0.0,93,0.00,BKN,,0.00,WeatherDisplay:10.37,2013-05-30 10:22:00,
2013-05-30 06:24:00,64.4,62.3,30.12,SW,229,0.0,0.0,93,0.00,BKN,,0.00,WeatherDisplay:10.37,2013-05-30 10:24:00,
2013-05-30 06:25:00,64.4,62.3,30.12,SW,230,0.0,0.0,93,0.00,BKN,,0.00,WeatherDisplay:10.37,2013-05-30 10:25:00,
2013-05-30 06:26:00,64.3,62.5,30.12,SW,230,0.0,0.0,94,0.00,BKN,,0.00,WeatherDisplay:10.37,2013-05-30 10:26:00,
2013-05-30 06:27:00,64.2,62.4,30.12,SW,230,0.0,0.0,94,0.00,BKN,,0.00,WeatherDisplay:10.37,2013-05-30 10:27:00,
2013-05-30 06:29:00,64.2,62.7,30.12,SW,230,0.0,0.0,95,0.00,BKN,,0.00,WeatherDisplay:10.37,2013-05-30 10:29:00,
2013-05-30 06:30:00,64.2,62.7,30.12,SW,230,0.0,0.0,95,0.00,BKN,,0.00,WeatherDisplay:10.37,2013-05-30 10:30:00,
2013-05-30 06:32:00,64.3,62.5,30.12,SW,230,0.0,0.0,94,0.00,BKN,,0.00,WeatherDisplay:10.37,2013-05-30 10:32:00,
2013-05-30 06:35:00,64.3,62.5,30.13,SW,230,0.0,0.0,94,0.00,BKN,,0.00,WeatherDisplay:10.37,2013-05-30 10:35:00,
2013-05-30 06:36:00,64.3,62.5,30.12,SW,230,0.0,0.0,94,0.00,BKN,,0.00,WeatherDisplay:10.37,2013-05-30 10:36:00,
2013-05-30 06:37:00,64.2,62.4,30.12,SW,230,0.0,0.0,94,0.00,BKN,,0.00,WeatherDisplay:10.37,2013-05-30 10:37:00,
2013-05-30 06:40:00,64.3,62.5,30.13,SW,229,0.0,0.0,94,0.00,BKN,,0.00,WeatherDisplay:10.37,2013-05-30 10:40:00,
2013-05-30 06:41:00,64.3,62.5,30.13,SW,227,0.0,0.0,94,0.00,BKN,,0.00,WeatherDisplay:10.37,2013-05-30 10:41:00,
2013-05-30 06:42:00,64.3,62.2,30.13,SW,227,0.0,0.0,93,0.00,BKN,,0.00,WeatherDisplay:10.37,2013-05-30 10:42:00,
2013-05-30 06:43:00,64.3,62.2,30.13,SW,227,0.0,0.0,93,0.00,BKN,,0.00,WeatherDisplay:10.37,2013-05-30 10:43:00,
2013-05-30 06:45:00,64.3,61.6,30.13,SW,227,0.0,0.0,91,0.00,BKN,,0.00,WeatherDisplay:10.37,2013-05-30 10:45:00,
2013-05-30 06:46:00,64.3,61.9,30.13,SW,227,0.0,0.0,92,0.00,BKN,,0.00,WeatherDisplay:10.37,2013-05-30 10:46:00,
2013-05-30 06:48:00,64.2,61.8,30.13,SW,228,0.0,0.0,92,0.00,BKN,,0.00,WeatherDisplay:10.37,2013-05-30 10:48:00,
2013-05-30 06:50:00,64.2,62.1,30.13,SW,227,0.0,0.0,93,0.00,BKN,,0.00,WeatherDisplay:10.37,2013-05-30 10:50:00,
2013-05-30 06:51:00,64.3,62.2,30.13,SW,227,0.0,0.0,93,0.00,BKN,,0.00,WeatherDisplay:10.37,2013-05-30 10:51:00,
2013-05-30 06:52:00,64.3,62.2,30.13,SW,227,0.0,0.0,93,0.00,BKN,,0.00,WeatherDisplay:10.37,2013-05-30 10:52:00,
2013-05-30 06:53:00,64.2,61.8,30.13,SW,229,0.0,0.0,92,0.00,BKN,,0.00,WeatherDisplay:10.37,2013-05-30 10:53:00,
2013-05-30 06:54:00,64.2,62.1,30.13,SW,228,0.0,0.0,93,0.00,BKN,,0.00,WeatherDisplay:10.37,2013-05-30 10:54:00,
2013-05-30 06:56:00,64.1,62.0,30.13,SW,228,0.0,0.0,93,0.00,BKN,,0.00,WeatherDisplay:10.37,2013-05-30 10:56:00,
2013-05-30 06:57:00,64.1,62.0,30.13,SW,228,0.0,0.0,93,0.00,BKN,,0.00,WeatherDisplay:10.37,2013-05-30 10:57:00,
2013-05-30 06:58:00,64.2,62.1,30.13,SW,229,0.0,0.0,93,0.00,BKN,,0.00,WeatherDisplay:10.37,2013-05-30 10:58:00,
2013-05-30 06:59:00,64.2,62.1,30.13,SW,228,0.0,0.0,93,0.00,BKN,,0.00,WeatherDisplay:10.37,2013-05-30 10:59:00,
2013-05-30 07:01:00,64.2,62.4,30.13,SW,229,0.0,0.0,94,0.00,BKN,,0.00,WeatherDisplay:10.37,2013-05-30 11:01:00,
2013-05-30 07:02:00,64.2,62.4,30.13,SW,229,0.0,0.0,94,0.00,BKN,,0.00,WeatherDisplay:10.37,2013-05-30 11:02:00,
2013-05-30 07:04:00,64.2,62.4,30.13,SW,229,0.0,0.0,94,0.00,BKN,,0.00,WeatherDisplay:10.37,2013-05-30 11:04:00,
2013-05-30 07:06:00,64.3,62.5,30.13,SW,228,0.0,0.0,94,0.00,BKN,,0.00,WeatherDisplay:10.37,2013-05-30 11:06:00,
2013-05-30 07:07:00,64.3,62.5,30.14,SW,229,0.0,0.0,94,0.00,BKN,,0.00,WeatherDisplay:10.37,2013-05-30 11:07:00,
2013-05-30 07:09:00,64.3,62.5,30.14,SW,228,0.0,0.0,94,0.00,BKN,,0.00,WeatherDisplay:10.37,2013-05-30 11:09:00,
2013-05-30 07:11:00,64.4,62.6,30.13,SW,228,0.0,0.0,94,0.00,BKN,,0.00,WeatherDisplay:10.37,2013-05-30 11:11:00,
2013-05-30 07:12:00,64.5,62.7,30.13,SW,228,0.0,0.0,94,0.00,BKN,,0.00,WeatherDisplay:10.37,2013-05-30 11:12:00,
2013-05-30 07:13:00,64.5,62.7,30.13,SW,228,0.0,0.0,94,0.00,BKN,,0.00,WeatherDisplay:10.37,2013-05-30 11:13:00,
2013-05-30 07:14:00,64.5,62.7,30.13,SW,228,0.0,0.0,94,0.00,BKN,,0.00,WeatherDisplay:10.37,2013-05-30 11:14:00,
2013-05-30 07:16:00,64.6,62.8,30.14,SW,228,0.0,0.0,94,0.00,BKN,,0.00,WeatherDisplay:10.37,2013-05-30 11:16:00,
2013-05-30 07:17:00,64.6,62.8,30.13,SW,229,0.0,0.0,94,0.00,BKN,,0.00,WeatherDisplay:10.37,2013-05-30 11:17:00,
2013-05-30 07:18:00,64.7,62.9,30.13,SW,229,0.0,0.0,94,0.00,BKN,,0.00,WeatherDisplay:10.37,2013-05-30 11:18:00,
2013-05-30 07:19:00,64.7,62.9,30.14,SW,228,0.0,0.0,94,0.00,BKN,,0.00,WeatherDisplay:10.37,2013-05-30 11:19:00,
2013-05-30 07:22:00,64.9,63.1,30.13,SW,228,0.0,0.0,94,0.00,BKN,,0.00,WeatherDisplay:10.37,2013-05-30 11:22:00,
2013-05-30 07:23:00,64.9,63.1,30.13,SW,228,0.0,0.0,94,0.00,BKN,,0.00,WeatherDisplay:10.37,2013-05-30 11:23:00,
2013-05-30 07:24:00,64.8,63.0,30.13,SW,229,0.0,0.0,94,0.00,BKN,,0.00,WeatherDisplay:10.37,2013-05-30 11:24:00,
2013-05-30 07:27:00,65.1,63.3,30.14,SW,228,0.0,0.0,94,0.00,BKN,,0.00,WeatherDisplay:10.37,2013-05-30 11:27:00,
2013-05-30 07:29:00,65.1,63.3,30.13,SW,228,0.0,0.0,94,0.00,BKN,,0.00,WeatherDisplay:10.37,2013-05-30 11:29:00,
2013-05-30 07:30:00,65.0,63.2,30.13,SW,229,0.0,0.0,94,0.00,BKN,,0.00,WeatherDisplay:10.37,2013-05-30 11:30:00,
2013-05-30 07:32:00,65.2,63.7,30.13,SW,228,0.0,0.0,95,0.00,BKN,,0.00,WeatherDisplay:10.37,2013-05-30 11:32:00,
2013-05-30 07:33:00,65.2,63.7,30.13,SW,228,0.0,0.0,95,0.00,BKN,,0.00,WeatherDisplay:10.37,2013-05-30 11:33:00,
2013-05-30 07:34:00,65.2,64.0,30.13,SW,228,0.0,0.0,96,0.00,BKN,,0.00,WeatherDisplay:10.37,2013-05-30 11:34:00,
2013-05-30 07:35:00,65.4,64.2,30.13,SW,229,0.0,0.0,96,0.00,BKN,,0.00,WeatherDisplay:10.37,2013-05-30 11:35:00,
2013-05-30 07:38:00,65.5,64.0,30.13,SW,228,0.0,0.0,95,0.00,BKN,,0.00,WeatherDisplay:10.37,2013-05-30 11:38:00,
2013-05-30 07:39:00,65.6,63.8,30.13,SW,229,0.0,0.0,94,0.00,BKN,,0.00,WeatherDisplay:10.37,2013-05-30 11:39:00,
2013-05-30 07:40:00,65.6,64.1,30.13,SW,229,0.0,0.0,95,0.00,BKN,,0.00,WeatherDisplay:10.37,2013-05-30 11:40:00,
2013-05-30 07:43:00,65.8,64.0,30.14,SW,229,0.0,0.0,94,0.00,BKN,,0.00,WeatherDisplay:10.37,2013-05-30 11:43:00,
2013-05-30 07:44:00,65.9,64.1,30.14,SW,228,0.0,0.0,94,0.00,BKN,,0.00,WeatherDisplay:10.37,2013-05-30 11:44:00,
2013-05-30 07:45:00,65.9,64.1,30.14,SW,227,0.0,0.0,94,0.00,BKN,,0.00,WeatherDisplay:10.37,2013-05-30 11:45:00,
2013-05-30 07:48:00,66.1,64.0,30.14,SW,227,0.0,1.1,93,0.00,BKN,,0.00,WeatherDisplay:10.37,2013-05-30 11:48:00,
2013-05-30 07:49:00,66.1,64.3,30.14,SW,227,0.0,1.0,94,0.00,BKN,,0.00,WeatherDisplay:10.37,2013-05-30 11:49:00,
2013-05-30 07:50:00,66.1,64.3,30.14,SW,227,0.0,1.1,94,0.00,BKN,,0.00,WeatherDisplay:10.37,2013-05-30 11:50:00,
2013-05-30 07:54:00,66.2,64.4,30.14,SW,227,0.0,0.0,94,0.00,BKN,,0.00,WeatherDisplay:10.37,2013-05-30 11:54:00,
2013-05-30 07:55:00,66.3,64.5,30.14,SW,227,0.0,0.0,94,0.00,BKN,,0.00,WeatherDisplay:10.37,2013-05-30 11:55:00,
2013-05-30 07:59:00,66.5,65.0,30.14,SW,227,0.0,0.0,95,0.00,BKN,,0.00,WeatherDisplay:10.37,2013-05-30 11:59:00,
2013-05-30 08:00:00,66.6,65.1,30.14,SW,227,0.0,0.0,95,0.00,BKN,,0.00,WeatherDisplay:10.37,2013-05-30 12:00:00,
2013-05-30 08:04:00,66.8,65.3,30.14,SW,227,0.0,0.0,95,0.00,BKN,,0.00,WeatherDisplay:10.37,2013-05-30 12:04:00,
2013-05-30 08:05:00,66.9,65.4,30.14,SW,227,0.0,0.0,95,0.00,BKN,,0.00,WeatherDisplay:10.37,2013-05-30 12:05:00,
2013-05-30 08:07:00,67.0,65.5,30.14,SW,227,0.0,1.0,95,0.00,BKN,,0.00,WeatherDisplay:10.37,2013-05-30 12:07:00,
2013-05-30 08:09:00,67.1,65.3,30.14,SSE,153,0.1,1.1,94,0.00,BKN,,0.00,WeatherDisplay:10.37,2013-05-30 12:09:00,
2013-05-30 08:10:00,67.1,65.3,30.14,SSE,152,0.1,1.1,94,0.00,BKN,,0.00,WeatherDisplay:10.37,2013-05-30 12:10:00,
2013-05-30 08:12:00,67.2,65.4,30.14,SE,125,0.0,0.0,94,0.00,BKN,,0.00,WeatherDisplay:10.37,2013-05-30 12:12:00,
2013-05-30 08:14:00,67.3,65.8,30.15,SE,125,0.0,1.1,95,0.00,BKN,,0.00,WeatherDisplay:10.37,2013-05-30 12:14:00,
2013-05-30 08:15:00,67.4,65.9,30.15,SE,125,0.0,1.1,95,0.00,BKN,,0.00,WeatherDisplay:10.37,2013-05-30 12:15:00,
2013-05-30 08:17:00,67.4,65.9,30.15,SE,125,0.0,0.0,95,0.00,BKN,,0.00,WeatherDisplay:10.37,2013-05-30 12:17:00,
2013-05-30 08:20:00,67.6,66.1,30.15,SE,125,0.0,0.0,95,0.00,BKN,,0.00,WeatherDisplay:10.37,2013-05-30 12:20:00,
2013-05-30 08:21:00,67.7,66.2,30.15,SE,125,0.0,0.0,95,0.00,BKN,,0.00,WeatherDisplay:10.37,2013-05-30 12:21:00,
2013-05-30 08:22:00,67.8,66.6,30.15,SE,125,0.0,1.1,96,0.00,BKN,,0.00,WeatherDisplay:10.37,2013-05-30 12:22:00,
2013-05-30 08:25:00,67.9,66.4,30.15,SE,125,0.0,0.0,95,0.00,BKN,,0.00,WeatherDisplay:10.37,2013-05-30 12:25:00,
2013-05-30 08:26:00,68.0,66.2,30.15,SE,125,0.0,1.1,94,0.00,BKN,,0.00,WeatherDisplay:10.37,2013-05-30 12:26:00,
2013-05-30 08:27:00,68.0,66.2,30.15,SE,125,0.0,0.0,94,0.00,BKN,,0.00,WeatherDisplay:10.37,2013-05-30 12:27:00,
2013-05-30 08:30:00,68.2,66.4,30.15,SE,125,0.0,0.0,94,0.00,BKN,,0.00,WeatherDisplay:10.37,2013-05-30 12:30:00,
2013-05-30 08:31:00,68.2,66.4,30.15,SE,125,0.0,0.0,94,0.00,BKN,,0.00,WeatherDisplay:10.37,2013-05-30 12:31:00,
2013-05-30 08:32:00,68.2,66.1,30.15,SE,125,0.0,0.0,93,0.00,BKN,,0.00,WeatherDisplay:10.37,2013-05-30 12:32:00,
2013-05-30 08:35:00,68.4,66.6,30.15,SE,126,0.0,0.0,94,0.00,BKN,,0.00,WeatherDisplay:10.37,2013-05-30 12:35:00,
2013-05-30 08:36:00,68.4,66.3,30.15,SE,125,0.0,0.0,93,0.00,BKN,,0.00,WeatherDisplay:10.37,2013-05-30 12:36:00,
2013-05-30 08:37:00,68.5,66.7,30.15,SE,125,0.1,1.1,94,0.00,BKN,,0.00,WeatherDisplay:10.37,2013-05-30 12:37:00,
2013-05-30 08:40:00,68.7,66.9,30.15,SE,125,0.0,1.1,94,0.00,BKN,,0.00,WeatherDisplay:10.37,2013-05-30 12:40:00,
2013-05-30 08:41:00,68.8,67.0,30.15,SE,125,0.0,1.1,94,0.00,BKN,,0.00,WeatherDisplay:10.37,2013-05-30 12:41:00,
2013-05-30 08:42:00,68.8,67.0,30.15,SE,125,0.0,0.0,94,0.00,BKN,,0.00,WeatherDisplay:10.37,2013-05-30 12:42:00,
2013-05-30 08:45:00,69.1,67.3,30.15,ESE,108,0.0,0.0,94,0.00,BKN,,0.00,WeatherDisplay:10.37,2013-05-30 12:45:00,
2013-05-30 08:46:00,69.1,67.3,30.15,ESE,102,0.1,1.1,94,0.00,BKN,,0.00,WeatherDisplay:10.37,2013-05-30 12:46:00,
2013-05-30 08:47:00,69.2,67.1,30.15,East,101,0.1,1.1,93,0.00,BKN,,0.00,WeatherDisplay:10.37,2013-05-30 12:47:00,
2013-05-30 08:50:00,69.4,67.6,30.15,East,95,0.9,1.1,94,0.00,BKN,,0.00,WeatherDisplay:10.37,2013-05-30 12:50:00,
2013-05-30 08:51:00,69.5,67.4,30.16,East,95,0.9,3.5,93,0.00,BKN,,0.00,WeatherDisplay:10.37,2013-05-30 12:51:00,
2013-05-30 08:52:00,69.5,67.4,30.16,East,95,1.0,3.5,93,0.00,BKN,,0.00,WeatherDisplay:10.37,2013-05-30 12:52:00,
2013-05-30 08:55:00,69.7,67.9,30.16,East,90,0.0,1.0,94,0.00,BKN,,0.00,WeatherDisplay:10.37,2013-05-30 12:55:00,
2013-05-30 08:56:00,69.7,67.6,30.16,East,90,0.0,1.1,93,0.00,BKN,,0.00,WeatherDisplay:10.37,2013-05-30 12:56:00,
2013-05-30 08:57:00,69.8,68.0,30.16,East,90,0.0,1.1,94,0.00,BKN,,0.00,WeatherDisplay:10.37,2013-05-30 12:57:00,
2013-05-30 09:01:00,69.9,67.8,30.15,East,90,0.0,0.0,93,0.00,SCT,,0.00,WeatherDisplay:10.37,2013-05-30 13:01:00,
2013-05-30 09:02:00,70.0,67.9,30.15,East,91,0.0,0.0,93,0.00,SCT,,0.00,WeatherDisplay:10.37,2013-05-30 13:02:00,
2013-05-30 09:03:00,70.0,67.9,30.15,East,90,0.0,0.0,93,0.00,SCT,,0.00,WeatherDisplay:10.37,2013-05-30 13:03:00,
2013-05-30 09:06:00,70.1,68.0,30.15,East,90,0.0,0.0,93,0.00,SCT,,0.00,WeatherDisplay:10.37,2013-05-30 13:06:00,
2013-05-30 09:07:00,70.1,67.7,30.15,East,90,0.0,0.0,92,0.00,SCT,,0.00,WeatherDisplay:10.37,2013-05-30 13:07:00,
2013-05-30 09:08:00,70.2,67.8,30.15,East,90,0.0,0.0,92,0.00,SCT,,0.00,WeatherDisplay:10.37,2013-05-30 13:08:00,
2013-05-30 09:11:00,70.4,68.3,30.15,East,89,1.1,3.5,93,0.00,SCT,,0.00,WeatherDisplay:10.37,2013-05-30 13:11:00,
2013-05-30 09:12:00,70.6,68.5,30.15,East,89,0.0,2.3,93,0.00,SCT,,0.00,WeatherDisplay:10.37,2013-05-30 13:12:00,
2013-05-30 09:13:00,70.6,68.2,30.15,East,89,0.0,0.0,92,0.00,SCT,,0.00,WeatherDisplay:10.37,2013-05-30 13:13:00,
2013-05-30 09:16:00,70.9,68.1,30.15,East,89,0.0,0.0,91,0.00,SCT,,0.00,WeatherDisplay:10.37,2013-05-30 13:16:00,
2013-05-30 09:17:00,71.0,68.6,30.15,East,89,0.0,0.0,92,0.00,SCT,,0.00,WeatherDisplay:10.37,2013-05-30 13:17:00,
2013-05-30 09:18:00,71.1,68.3,30.15,East,89,0.0,0.0,91,0.00,SCT,,0.00,WeatherDisplay:10.37,2013-05-30 13:18:00,
2013-05-30 09:22:00,71.5,68.7,30.16,East,89,0.1,2.3,91,0.00,SCT,,0.00,WeatherDisplay:10.37,2013-05-30 13:22:00,
2013-05-30 09:23:00,71.6,68.8,30.16,East,89,0.0,1.1,91,0.00,SCT,,0.00,WeatherDisplay:10.37,2013-05-30 13:23:00,
2013-05-30 09:27:00,72.0,68.9,30.16,East,89,0.0,0.0,90,0.00,SCT,,0.00,WeatherDisplay:10.37,2013-05-30 13:27:00,
2013-05-30 09:28:00,72.1,68.7,30.16,East,89,0.0,0.0,89,0.00,SCT,,0.00,WeatherDisplay:10.37,2013-05-30 13:28:00,
2013-05-30 09:29:00,72.2,68.8,30.15,East,89,0.0,0.0,89,0.00,SCT,,0.00,WeatherDisplay:10.37,2013-05-30 13:29:00,
2013-05-30 09:32:00,72.5,68.4,30.16,SSE,167,0.6,3.5,87,0.00,SCT,,0.00,WeatherDisplay:10.37,2013-05-30 13:32:00,
2013-05-30 09:33:00,72.6,68.8,30.16,SSW,195,2.0,5.8,88,0.00,SCT,,0.00,WeatherDisplay:10.37,2013-05-30 13:33:00,
2013-05-30 09:34:00,72.7,68.3,30.16,WSW,257,2.6,5.0,86,0.00,SCT,,0.00,WeatherDisplay:10.37,2013-05-30 13:34:00,
2013-05-30 09:37:00,72.9,68.5,30.16,SE,129,0.3,3.5,86,0.00,SCT,,0.00,WeatherDisplay:10.37,2013-05-30 13:37:00,
2013-05-30 09:38:00,73.0,68.9,30.16,South,185,0.2,1.1,87,0.00,SCT,,0.00,WeatherDisplay:10.37,2013-05-30 13:38:00,
2013-05-30 09:39:00,73.0,68.9,30.16,South,186,0.1,1.1,87,0.00,SCT,,0.00,WeatherDisplay:10.37,2013-05-30 13:39:00,
2013-05-30 09:40:00,73.1,69.0,30.16,South,185,1.1,3.5,87,0.00,SCT,,0.00,WeatherDisplay:10.37,2013-05-30 13:40:00,
2013-05-30 09:42:00,73.3,68.9,30.15,South,191,3.4,5.8,86,0.00,SCT,,0.00,WeatherDisplay:10.37,2013-05-30 13:42:00,
2013-05-30 09:43:00,73.4,69.0,30.16,South,185,0.1,5.8,86,0.00,SCT,,0.00,WeatherDisplay:10.37,2013-05-30 13:43:00,
2013-05-30 09:44:00,73.4,69.3,30.16,South,181,0.0,0.0,87,0.00,SCT,,0.00,WeatherDisplay:10.37,2013-05-30 13:44:00,
2013-05-30 09:45:00,73.5,69.4,30.16,SE,145,0.0,1.1,87,0.00,SCT,,0.00,WeatherDisplay:10.37,2013-05-30 13:45:00,
2013-05-30 09:47:00,73.8,69.7,30.16,South,181,1.4,2.3,87,0.00,SCT,,0.00,WeatherDisplay:10.37,2013-05-30 13:47:00,
2013-05-30 09:48:00,73.9,69.4,30.16,South,181,0.0,0.0,86,0.00,SCT,,0.00,WeatherDisplay:10.37,2013-05-30 13:48:00,
2013-05-30 09:49:00,74.0,69.5,30.16,South,182,0.0,0.0,86,0.00,SCT,,0.00,WeatherDisplay:10.37,2013-05-30 13:49:00,
2013-05-30 09:50:00,74.0,69.9,30.16,SSE,148,0.4,3.0,87,0.00,SCT,,0.00,WeatherDisplay:10.37,2013-05-30 13:50:00,
2013-05-30 09:51:00,74.2,70.1,30.16,SE,138,0.7,3.5,87,0.00,SCT,,0.00,WeatherDisplay:10.37,2013-05-30 13:51:00,
2013-05-30 09:52:00,74.3,69.8,30.16,SE,137,1.0,2.0,86,0.00,SCT,,0.00,WeatherDisplay:10.37,2013-05-30 13:52:00,
2013-05-30 09:53:00,74.4,70.3,30.16,SE,136,0.0,3.5,87,0.00,SCT,,0.00,WeatherDisplay:10.37,2013-05-30 13:53:00,
2013-05-30 09:54:00,74.4,70.3,30.15,SE,136,0.0,0.0,87,0.00,SCT,,0.00,WeatherDisplay:10.37,2013-05-30 13:54:00,
2013-05-30 09:55:00,74.6,69.8,30.16,SE,137,0.0,0.0,85,0.00,SCT,,0.00,WeatherDisplay:10.37,2013-05-30 13:55:00,
2013-05-30 09:56:00,74.6,69.8,30.16,SE,137,0.0,0.0,85,0.00,SCT,,0.00,WeatherDisplay:10.37,2013-05-30 13:56:00,
2013-05-30 09:58:00,74.7,69.5,30.16,WSW,253,0.2,2.3,84,0.00,SCT,,0.00,WeatherDisplay:10.37,2013-05-30 13:58:00,
2013-05-30 09:59:00,74.7,68.8,30.16,SW,236,1.1,3.5,82,0.00,SCT,,0.00,WeatherDisplay:10.37,2013-05-30 13:59:00,
2013-05-30 10:00:00,74.7,68.8,30.16,SW,236,0.8,3.5,82,0.00,SCT,,0.00,WeatherDisplay:10.37,2013-05-30 14:00:00,
2013-05-30 10:01:00,74.7,68.8,30.15,SW,236,0.0,0.0,82,0.00,SCT,,0.00,WeatherDisplay:10.37,2013-05-30 14:01:00,
2013-05-30 10:03:00,74.8,68.9,30.15,SW,215,0.2,3.5,82,0.00,SCT,,0.00,WeatherDisplay:10.37,2013-05-30 14:03:00,
2013-05-30 10:04:00,74.8,69.6,30.16,South,171,0.1,1.0,84,0.00,SCT,,0.00,WeatherDisplay:10.37,2013-05-30 14:04:00,
2013-05-30 10:06:00,75.0,69.8,30.15,SSE,162,0.0,0.0,84,0.00,SCT,,0.00,WeatherDisplay:10.37,2013-05-30 14:06:00,
2013-05-30 10:09:00,75.2,70.0,30.15,SE,125,0.7,4.6,84,0.00,SCT,,0.00,WeatherDisplay:10.37,2013-05-30 14:09:00,
2013-05-30 10:10:00,75.3,70.1,30.15,SE,125,0.0,0.0,84,0.00,SCT,,0.00,WeatherDisplay:10.37,2013-05-30 14:10:00,
2013-05-30 10:11:00,75.4,70.6,30.15,SE,136,0.0,1.1,85,0.00,SCT,,0.00,WeatherDisplay:10.37,2013-05-30 14:11:00,
2013-05-30 10:14:00,75.6,70.4,30.15,SSE,160,0.1,0.0,84,0.00,SCT,,0.00,WeatherDisplay:10.37,2013-05-30 14:14:00,
2013-05-30 10:15:00,75.7,70.9,30.15,SSE,159,0.0,1.1,85,0.00,SCT,,0.00,WeatherDisplay:10.37,2013-05-30 14:15:00,
2013-05-30 10:16:00,75.8,71.3,30.15,SE,146,1.5,3.5,86,0.00,SCT,,0.00,WeatherDisplay:10.37,2013-05-30 14:16:00,
2013-05-30 10:17:00,75.9,71.4,30.15,SE,132,0.7,3.5,86,0.00,SCT,,0.00,WeatherDisplay:10.37,2013-05-30 14:17:00,
2013-05-30 10:19:00,76.1,70.9,30.15,East,86,0.0,1.1,84,0.00,SCT,,0.00,WeatherDisplay:10.37,2013-05-30 14:19:00,
2013-05-30 10:20:00,76.2,71.0,30.15,SE,129,0.3,2.3,84,0.00,SCT,,0.00,WeatherDisplay:10.37,2013-05-30 14:20:00,
2013-05-30 10:21:00,76.3,71.5,30.15,ESE,123,0.1,2.3,85,0.00,SCT,,0.00,WeatherDisplay:10.37,2013-05-30 14:21:00,
2013-05-30 10:22:00,76.4,71.6,30.15,SE,124,0.0,1.1,85,0.00,SCT,,0.00,WeatherDisplay:10.37,2013-05-30 14:22:00,
2013-05-30 10:24:00,76.5,70.6,30.15,WSW,238,0.5,3.0,82,0.00,SCT,,0.00,WeatherDisplay:10.37,2013-05-30 14:24:00,
2013-05-30 10:25:00,76.6,70.7,30.15,SW,236,0.1,3.5,82,0.00,SCT,,0.00,WeatherDisplay:10.37,2013-05-30 14:25:00,
2013-05-30 10:27:00,76.7,70.4,30.15,South,186,1.6,4.6,81,0.00,SCT,,0.00,WeatherDisplay:10.37,2013-05-30 14:27:00,
2013-05-30 10:29:00,76.8,71.2,30.15,SE,145,0.1,1.1,83,0.00,SCT,,0.00,WeatherDisplay:10.37,2013-05-30 14:29:00,
2013-05-30 10:30:00,76.9,71.3,30.15,SE,141,0.5,3.0,83,0.00,SCT,,0.00,WeatherDisplay:10.37,2013-05-30 14:30:00,
2013-05-30 10:32:00,77.1,71.2,30.15,SE,134,0.1,0.0,82,0.00,SCT,,0.00,WeatherDisplay:10.37,2013-05-30 14:32:00,
2013-05-30 10:33:00,77.2,71.3,30.15,SE,134,0.1,3.0,82,0.00,SCT,,0.00,WeatherDisplay:10.37,2013-05-30 14:33:00,
2013-05-30 10:35:00,77.5,72.3,30.15,ESE,118,2.7,4.6,84,0.00,SCT,,0.00,WeatherDisplay:10.37,2013-05-30 14:35:00,
2013-05-30 10:37:00,77.7,72.1,30.15,SE,131,1.4,4.6,83,0.00,SCT,,0.00,WeatherDisplay:10.37,2013-05-30 14:37:00,
2013-05-30 10:38:00,77.8,71.9,30.15,ESE,114,1.5,4.6,82,0.00,SCT,,0.00,WeatherDisplay:10.37,2013-05-30 14:38:00,
2013-05-30 10:40:00,78.1,71.8,30.15,East,100,4.3,6.9,81,0.00,SCT,,0.00,WeatherDisplay:10.37,2013-05-30 14:40:00,
2013-05-30 10:41:00,78.2,71.5,30.15,East,96,2.8,4.6,80,0.00,SCT,,0.00,WeatherDisplay:10.37,2013-05-30 14:41:00,
2013-05-30 10:42:00,78.4,71.7,30.14,East,98,1.2,3.5,80,0.00,SCT,,0.00,WeatherDisplay:10.37,2013-05-30 14:42:00,
2013-05-30 10:43:00,78.4,71.7,30.14,East,98,0.3,3.5,80,0.00,SCT,,0.00,WeatherDisplay:10.37,2013-05-30 14:43:00,
2013-05-30 10:45:00,77.1,70.5,30.15,ESE,109,0.0,0.0,80,0.00,SCT,,0.00,WeatherDisplay:10.37,2013-05-30 14:45:00,
2013-05-30 10:46:00,77.1,70.5,30.15,ESE,109,0.0,0.0,80,0.00,SCT,,0.00,WeatherDisplay:10.37,2013-05-30 14:46:00,
2013-05-30 10:48:00,77.2,69.8,30.14,East,85,1.1,1.1,78,0.00,SCT,,0.00,WeatherDisplay:10.37,2013-05-30 14:48:00,
2013-05-30 10:51:00,78.6,70.8,30.14,East,90,0.9,3.5,77,0.00,SCT,,0.00,WeatherDisplay:10.37,2013-05-30 14:51:00,
2013-05-30 10:54:00,79.0,70.8,30.14,East,90,0.0,0.0,76,0.00,SCT,,0.00,WeatherDisplay:10.37,2013-05-30 14:54:00,
2013-05-30 10:56:00,78.9,69.5,30.14,East,90,0.0,1.1,73,0.00,SCT,,0.00,WeatherDisplay:10.37,2013-05-30 14:56:00,
2013-05-30 10:59:00,72.3,62.8,30.14,WNW,287,0.6,3.5,72,0.00,SCT,,0.00,WeatherDisplay:10.37,2013-05-30 14:59:00,
2013-05-30 11:01:00,72.4,63.6,30.14,WSW,240,1.9,4.6,74,0.00,BKN,,0.00,WeatherDisplay:10.37,2013-05-30 15:01:00,
2013-05-30 11:02:00,72.3,64.3,30.14,South,191,0.5,2.3,76,0.00,BKN,,0.00,WeatherDisplay:10.37,2013-05-30 15:02:00,
2013-05-30 11:04:00,72.7,65.1,30.15,SE,126,1.7,4.0,77,0.00,BKN,,0.00,WeatherDisplay:10.37,2013-05-30 15:04:00,
2013-05-30 11:06:00,79.7,72.2,30.14,East,80,2.5,5.8,78,0.00,BKN,,0.00,WeatherDisplay:10.37,2013-05-30 15:06:00,
2013-05-30 11:07:00,79.8,71.9,30.14,ENE,76,2.6,3.5,77,0.00,BKN,,0.00,WeatherDisplay:10.37,2013-05-30 15:07:00,
2013-05-30 11:09:00,80.0,71.0,30.14,East,86,2.4,4.6,74,0.00,BKN,,0.00,WeatherDisplay:10.37,2013-05-30 15:09:00,
2013-05-30 11:10:00,80.1,71.1,30.14,East,91,2.7,3.5,74,0.00,BKN,,0.00,WeatherDisplay:10.37,2013-05-30 15:10:00,
2013-05-30 11:11:00,80.2,71.6,30.15,ESE,123,2.8,3.5,75,0.00,BKN,,0.00,WeatherDisplay:10.37,2013-05-30 15:11:00,
2013-05-30 11:12:00,80.2,71.6,30.14,SE,134,0.7,4.6,75,0.00,BKN,,0.00,WeatherDisplay:10.37,2013-05-30 15:12:00,
2013-05-30 11:14:00,80.0,71.4,30.15,SE,131,0.1,1.1,75,0.00,BKN,,0.00,WeatherDisplay:10.37,2013-05-30 15:14:00,
2013-05-30 11:15:00,80.8,72.1,30.14,East,97,0.0,0.0,75,0.00,BKN,,0.00,WeatherDisplay:10.37,2013-05-30 15:15:00,
2013-05-30 11:16:00,80.9,71.8,30.14,ESE,113,0.1,1.1,74,0.00,BKN,,0.00,WeatherDisplay:10.37,2013-05-30 15:16:00,
2013-05-30 11:17:00,80.9,72.2,30.14,ESE,114,0.5,1.1,75,0.00,BKN,,0.00,WeatherDisplay:10.37,2013-05-30 15:17:00,
2013-05-30 11:19:00,81.0,71.9,30.14,ENE,77,1.2,3.5,74,0.00,BKN,,0.00,WeatherDisplay:10.37,2013-05-30 15:19:00,
2013-05-30 11:21:00,81.0,72.3,30.14,East,82,0.1,1.1,75,0.00,BKN,,0.00,WeatherDisplay:10.37,2013-05-30 15:21:00,
2013-05-30 11:22:00,81.0,72.3,30.14,SE,140,1.2,4.6,75,0.00,BKN,,0.00,WeatherDisplay:10.37,2013-05-30 15:22:00,
2013-05-30 11:24:00,80.8,70.5,30.14,SSW,203,3.2,6.9,71,0.00,BKN,,0.00,WeatherDisplay:10.37,2013-05-30 15:24:00,
2013-05-30 11:26:00,80.7,70.8,30.14,SSW,207,0.1,1.1,72,0.00,BKN,,0.00,WeatherDisplay:10.37,2013-05-30 15:26:00,
2013-05-30 11:27:00,80.6,71.1,30.14,SSW,196,0.1,1.1,73,0.00,BKN,,0.00,WeatherDisplay:10.37,2013-05-30 15:27:00,
2013-05-30 11:28:00,80.5,71.0,30.14,SSW,197,0.0,0.0,73,0.00,BKN,,0.00,WeatherDisplay:10.37,2013-05-30 15:28:00,
2013-05-30 11:29:00,80.5,71.0,30.14,SSW,197,0.0,0.0,73,0.00,BKN,,0.00,WeatherDisplay:10.37,2013-05-30 15:29:00,
2013-05-30 11:31:00,80.6,71.1,30.14,SSW,197,0.0,0.0,73,0.00,BKN,,0.00,WeatherDisplay:10.37,2013-05-30 15:31:00,
2013-05-30 11:32:00,80.7,71.6,30.14,SSW,196,0.0,1.1,74,0.00,BKN,,0.00,WeatherDisplay:10.37,2013-05-30 15:32:00,
2013-05-30 11:33:00,80.8,72.1,30.14,SE,125,0.7,2.3,75,0.00,BKN,,0.00,WeatherDisplay:10.37,2013-05-30 15:33:00,
2013-05-30 11:35:00,81.0,70.7,30.14,South,190,3.0,5.8,71,0.00,BKN,,0.00,WeatherDisplay:10.37,2013-05-30 15:35:00,
2013-05-30 11:36:00,81.2,72.1,30.14,East,91,2.2,3.5,74,0.00,BKN,,0.00,WeatherDisplay:10.37,2013-05-30 15:36:00,
2013-05-30 11:37:00,81.2,71.3,30.14,ESE,106,1.4,5.8,72,0.00,BKN,,0.00,WeatherDisplay:10.37,2013-05-30 15:37:00,
2013-05-30 11:38:00,81.3,71.8,30.14,SE,127,1.0,7.0,73,0.00,BKN,,0.00,WeatherDisplay:10.37,2013-05-30 15:38:00,
2013-05-30 11:40:00,81.7,71.8,30.14,SE,134,1.9,4.6,72,0.00,BKN,,0.00,WeatherDisplay:10.37,2013-05-30 15:40:00,
2013-05-30 11:41:00,81.9,71.2,30.14,South,169,0.5,2.3,70,0.00,BKN,,0.00,WeatherDisplay:10.37,2013-05-30 15:41:00,
2013-05-30 11:42:00,82.0,71.2,30.14,ESE,119,2.0,3.5,70,0.00,BKN,,0.00,WeatherDisplay:10.37,2013-05-30 15:42:00,
2013-05-30 11:43:00,82.1,71.8,30.14,East,95,3.0,5.8,71,0.00,BKN,,0.00,WeatherDisplay:10.37,2013-05-30 15:43:00,
2013-05-30 11:45:00,81.6,70.9,30.13,East,100,0.0,1.1,70,0.00,BKN,,0.00,WeatherDisplay:10.37,2013-05-30 15:45:00,
2013-05-30 11:46:00,81.6,70.9,30.14,East,101,0.0,1.1,70,0.00,BKN,,0.00,WeatherDisplay:10.37,2013-05-30 15:46:00,
2013-05-30 11:47:00,81.7,71.0,30.13,East,101,0.0,0.0,70,0.00,BKN,,0.00,WeatherDisplay:10.37,2013-05-30 15:47:00,
2013-05-30 11:48:00,81.8,71.5,30.13,East,97,1.1,2.0,71,0.00,BKN,,0.00,WeatherDisplay:10.37,2013-05-30 15:48:00,
2013-05-30 11:51:00,76.8,65.0,30.13,SW,228,1.2,4.6,67,0.00,BKN,,0.00,WeatherDisplay:10.37,2013-05-30 15:51:00,
2013-05-30 11:52:00,76.7,66.2,30.13,SSE,163,0.0,3.5,70,0.00,BKN,,0.00,WeatherDisplay:10.37,2013-05-30 15:52:00,
2013-05-30 11:53:00,82.5,71.3,30.13,SE,145,0.1,1.1,69,0.00,BKN,,0.00,WeatherDisplay:10.37,2013-05-30 15:53:00,
2013-05-30 11:56:00,83.3,72.1,30.13,East,99,3.6,8.1,69,0.00,BKN,,0.00,WeatherDisplay:10.37,2013-05-30 15:56:00,
2013-05-30 11:57:00,83.5,72.3,30.13,East,85,3.7,8.0,69,0.00,BKN,,0.00,WeatherDisplay:10.37,2013-05-30 15:57:00,
2013-05-30 11:58:00,82.7,71.5,30.13,ESE,102,5.6,8.1,69,0.00,BKN,,0.00,WeatherDisplay:10.37,2013-05-30 15:58:00,
2013-05-30 12:01:00,84.2,72.9,30.13,East,95,1.3,5.8,69,0.00,BKN,,0.00,WeatherDisplay:10.37,2013-05-30 16:01:00,
2013-05-30 12:02:00,84.2,72.9,30.13,SE,136,1.0,3.5,69,0.00,BKN,,0.00,WeatherDisplay:10.37,2013-05-30 16:02:00,
2013-05-30 12:03:00,84.3,73.4,30.13,SE,141,0.1,5.8,70,0.00,BKN,,0.00,WeatherDisplay:10.37,2013-05-30 16:03:00,
2013-05-30 12:06:00,83.9,71.8,30.12,SW,220,1.7,4.6,67,0.00,BKN,,0.00,WeatherDisplay:10.37,2013-05-30 16:06:00,
2013-05-30 12:07:00,83.8,71.7,30.12,SW,221,0.0,3.5,67,0.00,BKN,,0.00,WeatherDisplay:10.37,2013-05-30 16:07:00,
2013-05-30 12:08:00,83.6,71.0,30.12,SW,221,0.1,0.0,66,0.00,BKN,,0.00,WeatherDisplay:10.37,2013-05-30 16:08:00,
2013-05-30 12:09:00,83.4,71.3,30.12,SW,220,0.0,1.1,67,0.00,BKN,,0.00,WeatherDisplay:10.37,2013-05-30 16:09:00,
2013-05-30 12:11:00,83.2,72.4,30.12,SSE,157,0.5,5.0,70,0.00,BKN,,0.00,WeatherDisplay:10.37,2013-05-30 16:11:00,
2013-05-30 12:12:00,83.2,72.0,30.12,SE,139,1.5,4.0,69,0.00,BKN,,0.00,WeatherDisplay:10.37,2013-05-30 16:12:00,
2013-05-30 12:13:00,83.1,73.1,30.12,SE,130,4.7,7.0,72,0.00,BKN,,0.00,WeatherDisplay:10.37,2013-05-30 16:13:00,
2013-05-30 12:14:00,83.1,72.3,30.12,ESE,114,5.5,9.2,70,0.00,BKN,,0.00,WeatherDisplay:10.37,2013-05-30 16:14:00,
2013-05-30 12:17:00,83.2,72.4,30.12,ESE,112,2.7,4.6,70,0.00,BKN,,0.00,WeatherDisplay:10.37,2013-05-30 16:17:00,
2013-05-30 12:18:00,83.5,72.3,30.12,East,93,4.1,5.8,69,0.00,BKN,,0.00,WeatherDisplay:10.37,2013-05-30 16:18:00,
2013-05-30 12:19:00,83.6,72.3,30.12,ESE,110,1.8,5.8,69,0.00,BKN,,0.00,WeatherDisplay:10.37,2013-05-30 16:19:00,
2013-05-30 12:20:00,83.7,72.4,30.12,ESE,105,2.5,4.6,69,0.00,BKN,,0.00,WeatherDisplay:10.37,2013-05-30 16:20:00,
2013-05-30 12:22:00,83.9,72.6,30.12,ESE,103,0.0,0.0,69,0.00,BKN,,0.00,WeatherDisplay:10.37,2013-05-30 16:22:00,
2013-05-30 12:23:00,84.1,72.8,30.12,ESE,111,0.6,3.5,69,0.00,BKN,,0.00,WeatherDisplay:10.37,2013-05-30 16:23:00,
2013-05-30 12:24:00,84.4,72.7,30.12,ESE,112,0.0,0.0,68,0.00,BKN,,0.00,WeatherDisplay:10.37,2013-05-30 16:24:00,
2013-05-30 12:25:00,84.5,72.3,30.12,ESE,112,0.0,0.0,67,0.00,BKN,,0.00,WeatherDisplay:10.37,2013-05-30 16:25:00,
2013-05-30 12:27:00,84.9,73.2,30.12,East,94,0.2,3.0,68,0.00,BKN,,0.00,WeatherDisplay:10.37,2013-05-30 16:27:00,
2013-05-30 12:28:00,84.9,72.7,30.12,ESE,103,3.3,4.0,67,0.00,BKN,,0.00,WeatherDisplay:10.37,2013-05-30 16:28:00,
2013-05-30 12:30:00,85.3,74.0,30.12,ESE,102,2.0,5.8,69,0.00,BKN,,0.00,WeatherDisplay:10.37,2013-05-30 16:30:00,
2013-05-30 12:33:00,85.9,74.1,30.12,East,92,2.6,7.0,68,0.00,BKN,,0.00,WeatherDisplay:10.37,2013-05-30 16:33:00,
2013-05-30 12:34:00,86.1,73.9,30.12,SE,125,3.3,6.9,67,0.00,BKN,,0.00,WeatherDisplay:10.37,2013-05-30 16:34:00,
2013-05-30 12:35:00,86.3,74.0,30.12,SE,131,1.9,6.0,67,0.00,BKN,,0.00,WeatherDisplay:10.37,2013-05-30 16:35:00,
2013-05-30 12:38:00,86.6,73.9,30.12,SE,130,2.7,8.0,66,0.00,BKN,,0.00,WeatherDisplay:10.37,2013-05-30 16:38:00,
2013-05-30 12:39:00,86.5,73.3,30.12,ESE,108,5.8,8.1,65,0.00,BKN,,0.00,WeatherDisplay:10.37,2013-05-30 16:39:00,
2013-05-30 12:40:00,86.3,72.7,30.12,SE,125,1.1,6.9,64,0.00,BKN,,0.00,WeatherDisplay:10.37,2013-05-30 16:40:00,
2013-05-30 12:44:00,87.1,73.4,30.12,South,181,0.0,0.0,64,0.00,BKN,,0.00,WeatherDisplay:10.37,2013-05-30 16:44:00,
2013-05-30 12:46:00,87.0,72.4,30.11,WNW,284,0.1,1.1,62,0.00,BKN,,0.00,WeatherDisplay:10.37,2013-05-30 16:46:00,
2013-05-30 12:49:00,86.9,73.3,30.11,ENE,71,0.0,1.1,64,0.00,BKN,,0.00,WeatherDisplay:10.37,2013-05-30 16:49:00,
2013-05-30 12:50:00,87.0,73.8,30.11,East,96,2.5,7.0,65,0.00,BKN,,0.00,WeatherDisplay:10.37,2013-05-30 16:50:00,
2013-05-30 12:51:00,87.0,74.3,30.11,ENE,76,3.2,6.9,66,0.00,BKN,,0.00,WeatherDisplay:10.37,2013-05-30 16:51:00,
2013-05-30 12:54:00,87.3,73.2,30.12,SW,226,1.6,5.0,63,0.00,BKN,,0.00,WeatherDisplay:10.37,2013-05-30 16:54:00,
2013-05-30 12:55:00,87.2,72.6,30.11,ESE,105,2.6,6.0,62,0.00,BKN,,0.00,WeatherDisplay:10.37,2013-05-30 16:55:00,
2013-05-30 12:56:00,87.2,74.5,30.12,SE,129,4.3,5.8,66,0.00,BKN,,0.00,WeatherDisplay:10.37,2013-05-30 16:56:00,
2013-05-30 12:59:00,87.6,74.4,30.11,ESE,106,4.9,8.0,65,0.00,BKN,,0.00,WeatherDisplay:10.37,2013-05-30 16:59:00,
2013-05-30 13:00:00,87.7,73.5,30.11,ESE,110,6.2,8.1,63,0.00,BKN,,0.00,WeatherDisplay:10.37,2013-05-30 17:00:00,
2013-05-30 13:01:00,88.0,74.3,30.11,SSW,208,0.7,5.8,64,0.00,SCT,,0.00,WeatherDisplay:10.37,2013-05-30 17:01:00,
2013-05-30 13:02:00,88.1,74.4,30.11,ESE,116,0.3,3.5,64,0.00,SCT,,0.00,WeatherDisplay:10.37,2013-05-30 17:02:00,
2013-05-30 13:04:00,88.4,75.1,30.11,SW,220,0.1,1.1,65,0.00,SCT,,0.00,WeatherDisplay:10.37,2013-05-30 17:04:00,
2013-05-30 13:05:00,88.4,73.7,30.11,SSW,203,1.1,6.0,62,0.00,SCT,,0.00,WeatherDisplay:10.37,2013-05-30 17:05:00,
2013-05-30 13:06:00,88.5,74.3,30.11,South,183,0.2,6.9,63,0.00,SCT,,0.00,WeatherDisplay:10.37,2013-05-30 17:06:00,
2013-05-30 13:07:00,88.5,73.3,30.11,WSW,247,0.8,3.5,61,0.00,SCT,,0.00,WeatherDisplay:10.37,2013-05-30 17:07:00,
2013-05-30 13:09:00,88.2,74.0,30.11,SE,139,0.1,1.1,63,0.00,SCT,,0.00,WeatherDisplay:10.37,2013-05-30 17:09:00,
2013-05-30 13:10:00,88.1,73.9,30.11,SE,139,0.0,1.1,63,0.00,SCT,,0.00,WeatherDisplay:10.37,2013-05-30 17:10:00,
2013-05-30 13:12:00,88.1,73.0,30.11,South,182,0.5,3.5,61,0.00,SCT,,0.00,WeatherDisplay:10.37,2013-05-30 17:12:00,
2013-05-30 13:13:00,88.1,73.4,30.11,SSW,206,0.3,3.5,62,0.00,SCT,,0.00,WeatherDisplay:10.37,2013-05-30 17:13:00,
2013-05-30 13:15:00,88.2,74.9,30.11,SW,217,0.8,3.5,65,0.00,SCT,,0.00,WeatherDisplay:10.37,2013-05-30 17:15:00,
2013-05-30 13:17:00,88.3,75.5,30.11,SE,134,4.3,7.0,66,0.00,SCT,,0.00,WeatherDisplay:10.37,2013-05-30 17:17:00,
2013-05-30 13:18:00,88.5,75.2,30.11,East,101,4.6,11.5,65,0.00,SCT,,0.00,WeatherDisplay:10.37,2013-05-30 17:18:00,
2013-05-30 13:20:00,88.9,75.1,30.11,ESE,107,3.0,4.6,64,0.00,SCT,,0.00,WeatherDisplay:10.37,2013-05-30 17:20:00,
2013-05-30 13:21:00,88.9,74.7,30.11,East,94,3.1,5.8,63,0.00,SCT,,0.00,WeatherDisplay:10.37,2013-05-30 17:21:00,
2013-05-30 13:22:00,89.1,73.4,30.11,ENE,78,3.1,4.6,60,0.00,SCT,,0.00,WeatherDisplay:10.37,2013-05-30 17:22:00,
2013-05-30 13:23:00,89.2,73.5,30.11,NE,51,1.0,5.8,60,0.00,SCT,,0.00,WeatherDisplay:10.37,2013-05-30 17:23:00,
2013-05-30 13:25:00,89.3,74.1,30.10,NE,51,0.0,1.1,61,0.00,SCT,,0.00,WeatherDisplay:10.37,2013-05-30 17:25:00,
2013-05-30 13:26:00,89.3,74.1,30.10,NE,51,0.0,1.1,61,0.00,SCT,,0.00,WeatherDisplay:10.37,2013-05-30 17:26:00,
2013-05-30 13:27:00,89.2,73.0,30.10,NNE,25,0.1,1.1,59,0.00,SCT,,0.00,WeatherDisplay:10.37,2013-05-30 17:27:00,
2013-05-30 13:29:00,89.2,75.0,30.10,ESE,104,2.6,7.0,63,0.00,SCT,,0.00,WeatherDisplay:10.37,2013-05-30 17:29:00,
2013-05-30 13:30:00,89.5,75.2,30.10,ESE,114,2.2,9.2,63,0.00,SCT,,0.00,WeatherDisplay:10.37,2013-05-30 17:30:00,
2013-05-30 13:31:00,89.6,75.3,30.10,ESE,113,2.7,4.6,63,0.00,SCT,,0.00,WeatherDisplay:10.37,2013-05-30 17:31:00,
2013-05-30 13:32:00,89.8,75.5,30.10,SE,142,2.9,3.5,63,0.00,SCT,,0.00,WeatherDisplay:10.37,2013-05-30 17:32:00,
2013-05-30 13:34:00,90.0,74.7,30.10,SE,139,0.4,3.5,61,0.00,SCT,,0.00,WeatherDisplay:10.37,2013-05-30 17:34:00,
2013-05-30 13:36:00,90.2,73.4,30.10,SSE,156,0.6,3.5,58,0.00,SCT,,0.00,WeatherDisplay:10.37,2013-05-30 17:36:00,
2013-05-30 13:37:00,90.2,75.9,30.10,South,188,0.6,4.0,63,0.00,SCT,,0.00,WeatherDisplay:10.37,2013-05-30 17:37:00,
2013-05-30 13:39:00,90.1,72.3,30.10,SW,216,0.7,9.2,56,0.00,SCT,,0.00,WeatherDisplay:10.37,2013-05-30 17:39:00,
2013-05-30 13:41:00,89.9,73.7,30.10,South,190,1.0,3.5,59,0.00,SCT,,0.00,WeatherDisplay:10.37,2013-05-30 17:41:00,
2013-05-30 13:42:00,89.9,74.6,30.10,East,92,1.0,5.0,61,0.00,SCT,,0.00,WeatherDisplay:10.37,2013-05-30 17:42:00,
2013-05-30 13:43:00,89.9,74.6,30.10,East,101,2.5,4.6,61,0.00,SCT,,0.00,WeatherDisplay:10.37,2013-05-30 17:43:00,
2013-05-30 13:44:00,90.1,75.3,30.10,SSW,207,1.9,5.0,62,0.00,SCT,,0.00,WeatherDisplay:10.37,2013-05-30 17:44:00,
2013-05-30 13:46:00,90.2,74.4,30.10,South,181,2.7,5.8,60,0.00,SCT,,0.00,WeatherDisplay:10.37,2013-05-30 17:46:00,
2013-05-30 13:47:00,90.3,75.5,30.10,SE,132,2.9,6.9,62,0.00,SCT,,0.00,WeatherDisplay:10.37,2013-05-30 17:47:00,
2013-05-30 13:48:00,90.3,75.0,30.10,East,89,2.9,6.9,61,0.00,SCT,,0.00,WeatherDisplay:10.37,2013-05-30 17:48:00,
2013-05-30 13:50:00,90.7,73.9,30.10,East,89,3.6,5.8,58,0.00,SCT,,0.00,WeatherDisplay:10.37,2013-05-30 17:50:00,
2013-05-30 13:51:00,90.8,74.0,30.10,East,92,1.5,4.6,58,0.00,SCT,,0.00,WeatherDisplay:10.37,2013-05-30 17:51:00,
2013-05-30 13:52:00,90.9,74.1,30.09,East,94,0.1,1.1,58,0.00,SCT,,0.00,WeatherDisplay:10.37,2013-05-30 17:52:00,
2013-05-30 13:53:00,91.0,74.7,30.10,ESE,106,0.1,1.1,59,0.00,SCT,,0.00,WeatherDisplay:10.37,2013-05-30 17:53:00,
2013-05-30 13:55:00,90.5,73.2,30.10,East,96,1.7,4.0,57,0.00,SCT,,0.00,WeatherDisplay:10.37,2013-05-30 17:55:00,
2013-05-30 13:56:00,90.4,73.6,30.09,East,95,1.5,3.5,58,0.00,SCT,,0.00,WeatherDisplay:10.37,2013-05-30 17:56:00,
2013-05-30 13:57:00,89.8,72.5,30.09,East,95,0.0,4.6,57,0.00,SCT,,0.00,WeatherDisplay:10.37,2013-05-30 17:57:00,
2013-05-30 13:58:00,89.5,72.3,30.09,East,95,0.0,0.0,57,0.00,SCT,,0.00,WeatherDisplay:10.37,2013-05-30 17:58:00,
2013-05-30 14:01:00,89.2,74.0,30.09,East,95,0.0,0.0,61,0.00,BKN,,0.00,WeatherDisplay:10.37,2013-05-30 18:01:00,
2013-05-30 14:02:00,89.3,74.1,30.09,East,97,1.2,3.0,61,0.00,BKN,,0.00,WeatherDisplay:10.37,2013-05-30 18:02:00,
2013-05-30 14:03:00,89.5,75.2,30.09,East,99,1.0,3.5,63,0.00,BKN,,0.00,WeatherDisplay:10.37,2013-05-30 18:03:00,
2013-05-30 14:06:00,90.0,76.6,30.09,SSE,149,0.7,3.5,65,0.00,BKN,,0.00,WeatherDisplay:10.37,2013-05-30 18:06:00,
2013-05-30 14:07:00,90.2,74.9,30.09,SE,130,3.8,3.8,61,0.00,BKN,,0.00,WeatherDisplay:10.37,2013-05-30 18:07:00,
2013-05-30 14:08:00,90.3,73.5,30.09,SE,126,1.4,6.9,58,0.00,BKN,,0.00,WeatherDisplay:10.37,2013-05-30 18:08:00,
2013-05-30 14:09:00,90.5,75.7,30.09,SE,127,1.5,3.5,62,0.00,BKN,,0.00,WeatherDisplay:10.37,2013-05-30 18:09:00,
2013-05-30 14:12:00,90.7,74.9,30.09,SE,127,0.0,1.1,60,0.00,BKN,,0.00,WeatherDisplay:10.37,2013-05-30 18:12:00,
2013-05-30 14:13:00,90.9,74.6,30.09,ESE,116,0.1,0.0,59,0.00,BKN,,0.00,WeatherDisplay:10.37,2013-05-30 18:13:00,
2013-05-30 14:14:00,91.0,75.2,30.09,SE,135,0.0,0.0,60,0.00,BKN,,0.00,WeatherDisplay:10.37,2013-05-30 18:14:00,
2013-05-30 14:17:00,90.8,72.9,30.08,SW,226,0.4,4.6,56,0.00,BKN,,0.00,WeatherDisplay:10.37,2013-05-30 18:17:00,
2013-05-30 14:18:00,90.7,73.9,30.09,WSW,239,4.6,7.0,58,0.00,BKN,,0.00,WeatherDisplay:10.37,2013-05-30 18:18:00,
2013-05-30 14:19:00,90.6,73.8,30.09,WSW,245,5.4,8.0,58,0.00,BKN,,0.00,WeatherDisplay:10.37,2013-05-30 18:19:00,
2013-05-30 14:20:00,90.3,71.9,30.09,SSW,201,5.1,9.2,55,0.00,BKN,,0.00,WeatherDisplay:10.37,2013-05-30 18:20:00,
2013-05-30 14:22:00,90.3,73.5,30.08,West,266,0.2,3.0,58,0.00,BKN,,0.00,WeatherDisplay:10.37,2013-05-30 18:22:00,
2013-05-30 14:23:00,90.3,70.8,30.08,WNW,299,1.6,4.0,53,0.00,BKN,,0.00,WeatherDisplay:10.37,2013-05-30 18:23:00,
2013-05-30 14:24:00,90.2,71.3,30.08,NW,317,2.2,4.0,54,0.00,BKN,,0.00,WeatherDisplay:10.37,2013-05-30 18:24:00,
2013-05-30 14:25:00,89.9,72.6,30.08,WNW,302,1.7,4.6,57,0.00,BKN,,0.00,WeatherDisplay:10.37,2013-05-30 18:25:00,
2013-05-30 14:27:00,89.6,72.3,30.08,NNE,12,1.0,1.1,57,0.00,BKN,,0.00,WeatherDisplay:10.37,2013-05-30 18:27:00,
2013-05-30 14:29:00,89.7,72.4,30.08,WNW,282,0.1,2.3,57,0.00,BKN,,0.00,WeatherDisplay:10.37,2013-05-30 18:29:00,
2013-05-30 14:30:00,89.8,71.5,30.08,NNW,338,0.0,2.3,55,0.00,BKN,,0.00,WeatherDisplay:10.37,2013-05-30 18:30:00,
2013-05-30 14:32:00,90.0,72.7,30.08,WSW,248,0.1,1.1,57,0.00,BKN,,0.00,WeatherDisplay:10.37,2013-05-30 18:32:00,
2013-05-30 14:34:00,90.1,72.8,30.08,WSW,248,0.0,0.0,57,0.00,BKN,,0.00,WeatherDisplay:10.37,2013-05-30 18:34:00,
2013-05-30 14:35:00,90.2,71.8,30.08,WSW,249,0.0,0.0,55,0.00,BKN,,0.00,WeatherDisplay:10.37,2013-05-30 18:35:00,
2013-05-30 14:38:00,90.8,75.0,30.08,SE,135,3.6,8.1,60,0.00,BKN,,0.00,WeatherDisplay:10.37,2013-05-30 18:38:00,
2013-05-30 14:39:00,91.0,74.7,30.08,SE,124,3.5,8.1,59,0.00,BKN,,0.00,WeatherDisplay:10.37,2013-05-30 18:39:00,
2013-05-30 14:40:00,91.2,74.9,30.08,ESE,112,1.1,3.5,59,0.00,BKN,,0.00,WeatherDisplay:10.37,2013-05-30 18:40:00,
2013-05-30 14:43:00,91.4,73.5,30.07,East,89,3.9,5.8,56,0.00,BKN,,0.00,WeatherDisplay:10.37,2013-05-30 18:43:00,
2013-05-30 14:44:00,91.5,74.1,30.08,ESE,116,2.5,6.0,57,0.00,BKN,,0.00,WeatherDisplay:10.37,2013-05-30 18:44:00,
2013-05-30 14:45:00,91.6,74.7,30.08,ESE,117,3.9,5.8,58,0.00,BKN,,0.00,WeatherDisplay:10.37,2013-05-30 18:45:00,
2013-05-30 14:48:00,92.1,73.6,30.07,SSE,159,0.2,1.1,55,0.00,BKN,,0.00,WeatherDisplay:10.37,2013-05-30 18:48:00,
2013-05-30 14:49:00,92.2,73.2,30.07,SSE,159,0.0,1.1,54,0.00,BKN,,0.00,WeatherDisplay:10.37,2013-05-30 18:49:00,
2013-05-30 14:50:00,92.2,73.7,30.07,SE,133,1.5,5.0,55,0.00,BKN,,0.00,WeatherDisplay:10.37,2013-05-30 18:50:00,
2013-05-30 14:53:00,92.5,74.0,30.07,SE,135,5.9,10.0,55,0.00,BKN,,0.00,WeatherDisplay:10.37,2013-05-30 18:53:00,
2013-05-30 14:54:00,92.7,75.2,30.07,ESE,119,2.2,10.4,57,0.00,BKN,,0.00,WeatherDisplay:10.37,2013-05-30 18:54:00,
2013-05-30 14:55:00,92.7,74.7,30.07,ESE,121,0.7,10.4,56,0.00,BKN,,0.00,WeatherDisplay:10.37,2013-05-30 18:55:00,
2013-05-30 14:58:00,92.9,73.8,30.07,East,96,5.6,9.2,54,0.00,BKN,,0.00,WeatherDisplay:10.37,2013-05-30 18:58:00,
2013-05-30 14:59:00,92.9,72.7,30.07,East,98,6.1,9.2,52,0.00,BKN,,0.00,WeatherDisplay:10.37,2013-05-30 18:59:00,
2013-05-30 15:00:00,93.0,72.8,30.07,ENE,68,5.4,10.4,52,0.00,BKN,,0.00,WeatherDisplay:10.37,2013-05-30 19:00:00,
2013-05-30 15:04:00,92.9,73.2,30.07,NNW,340,1.9,3.5,53,0.00,BKN,,0.00,WeatherDisplay:10.37,2013-05-30 19:04:00,
2013-05-30 15:05:00,92.6,72.4,30.07,NNW,340,2.0,3.5,52,0.00,BKN,,0.00,WeatherDisplay:10.37,2013-05-30 19:05:00,
2013-05-30 15:09:00,91.7,73.2,30.06,NNW,343,0.0,0.0,55,0.00,BKN,,0.00,WeatherDisplay:10.37,2013-05-30 19:09:00,
2013-05-30 15:10:00,91.8,74.4,30.06,East,101,0.9,3.5,57,0.00,BKN,,0.00,WeatherDisplay:10.37,2013-05-30 19:10:00,
2013-05-30 15:11:00,91.8,74.4,30.06,NE,45,1.6,3.5,57,0.00,BKN,,0.00,WeatherDisplay:10.37,2013-05-30 19:11:00,
2013-05-30 15:14:00,92.2,73.7,30.06,ESE,111,5.8,8.1,55,0.00,BKN,,0.00,WeatherDisplay:10.37,2013-05-30 19:14:00,
2013-05-30 15:15:00,92.4,73.9,30.06,SE,129,7.3,11.5,55,0.00,BKN,,0.00,WeatherDisplay:10.37,2013-05-30 19:15:00,
2013-05-30 15:16:00,92.5,73.4,30.06,ESE,104,7.9,11.5,54,0.00,BKN,,0.00,WeatherDisplay:10.37,2013-05-30 19:16:00,
2013-05-30 15:20:00,93.1,72.9,30.06,East,88,3.4,5.8,52,0.00,BKN,,0.00,WeatherDisplay:10.37,2013-05-30 19:20:00,
2013-05-30 15:21:00,93.2,73.0,30.06,East,89,3.5,4.6,52,0.00,BKN,,0.00,WeatherDisplay:10.37,2013-05-30 19:21:00,
2013-05-30 15:25:00,93.6,72.7,30.06,East,94,8.3,10.4,51,0.00,BKN,,0.00,WeatherDisplay:10.37,2013-05-30 19:25:00,
2013-05-30 15:26:00,93.7,72.8,30.06,ESE,108,7.0,10.4,51,0.00,BKN,,0.00,WeatherDisplay:10.37,2013-05-30 19:26:00,
2013-05-30 15:30:00,94.0,73.7,30.06,ESE,109,1.8,3.5,52,0.00,BKN,,0.00,WeatherDisplay:10.37,2013-05-30 19:30:00,
2013-05-30 15:31:00,94.1,73.8,30.06,ESE,111,2.4,4.6,52,0.00,BKN,,0.00,WeatherDisplay:10.37,2013-05-30 19:31:00,
2013-05-30 15:32:00,94.1,74.4,30.06,East,95,4.2,5.8,53,0.00,BKN,,0.00,WeatherDisplay:10.37,2013-05-30 19:32:00,
2013-05-30 15:35:00,93.8,72.3,30.06,ENE,70,1.5,3.5,50,0.00,BKN,,0.00,WeatherDisplay:10.37,2013-05-30 19:35:00,
2013-05-30 15:36:00,93.8,72.3,30.05,ENE,70,1.4,3.5,50,0.00,BKN,,0.00,WeatherDisplay:10.37,2013-05-30 19:36:00,
2013-05-30 15:37:00,93.8,74.6,30.06,East,89,0.9,4.0,54,0.00,BKN,,0.00,WeatherDisplay:10.37,2013-05-30 19:37:00,
2013-05-30 15:41:00,94.0,74.3,30.06,East,99,0.1,0.0,53,0.00,BKN,,0.00,WeatherDisplay:10.37,2013-05-30 19:41:00,
2013-05-30 15:42:00,94.0,73.1,30.05,East,94,0.0,1.1,51,0.00,BKN,,0.00,WeatherDisplay:10.37,2013-05-30 19:42:00,
2013-05-30 15:46:00,94.0,73.1,30.05,ENE,62,0.0,1.1,51,0.00,BKN,,0.00,WeatherDisplay:10.37,2013-05-30 19:46:00,
2013-05-30 15:47:00,94.0,74.3,30.05,ENE,74,0.1,0.0,53,0.00,BKN,,0.00,WeatherDisplay:10.37,2013-05-30 19:47:00,
2013-05-30 15:48:00,94.0,73.1,30.05,SSW,197,1.8,4.6,51,0.00,BKN,,0.00,WeatherDisplay:10.37,2013-05-30 19:48:00,
2013-05-30 15:51:00,93.8,71.7,30.05,SSW,207,0.1,1.1,49,0.00,BKN,,0.00,WeatherDisplay:10.37,2013-05-30 19:51:00,
2013-05-30 15:52:00,93.6,72.2,30.05,SSW,211,3.6,5.0,50,0.00,BKN,,0.00,WeatherDisplay:10.37,2013-05-30 19:52:00,
2013-05-30 15:53:00,93.6,71.0,30.05,SSW,196,7.5,9.2,48,0.00,BKN,,0.00,WeatherDisplay:10.37,2013-05-30 19:53:00,
2013-05-30 15:56:00,93.5,73.2,30.05,ESE,105,2.0,6.9,52,0.00,BKN,,0.00,WeatherDisplay:10.37,2013-05-30 19:56:00,
2013-05-30 15:57:00,93.5,73.2,30.05,ESE,105,0.7,4.6,52,0.00,BKN,,0.00,WeatherDisplay:10.37,2013-05-30 19:57:00,
2013-05-30 15:58:00,93.6,73.9,30.05,NE,56,1.0,2.0,53,0.00,BKN,,0.00,WeatherDisplay:10.37,2013-05-30 19:58:00,
2013-05-30 16:01:00,93.8,72.9,30.05,East,83,0.6,3.5,51,0.00,FEW,,0.00,WeatherDisplay:10.37,2013-05-30 20:01:00,
2013-05-30 16:02:00,93.8,74.1,30.05,East,84,0.1,3.5,53,0.00,FEW,,0.00,WeatherDisplay:10.37,2013-05-30 20:02:00,
2013-05-30 16:03:00,93.9,75.8,30.05,East,84,0.1,1.1,56,0.00,FEW,,0.00,WeatherDisplay:10.37,2013-05-30 20:03:00,
2013-05-30 16:04:00,94.1,73.8,30.05,East,84,0.0,1.1,52,0.00,FEW,,0.00,WeatherDisplay:10.37,2013-05-30 20:04:00,
2013-05-30 16:07:00,94.0,74.3,30.04,ESE,113,2.5,5.8,53,0.00,FEW,,0.00,WeatherDisplay:10.37,2013-05-30 20:07:00,
2013-05-30 16:08:00,93.9,74.2,30.05,East,97,4.7,6.9,53,0.00,FEW,,0.00,WeatherDisplay:10.37,2013-05-30 20:08:00,
2013-05-30 16:09:00,93.8,73.5,30.05,SE,126,6.1,6.9,52,0.00,FEW,,0.00,WeatherDisplay:10.37,2013-05-30 20:09:00,
2013-05-30 16:12:00,94.1,74.4,30.05,SSE,153,0.3,3.5,53,0.00,FEW,,0.00,WeatherDisplay:10.37,2013-05-30 20:12:00,
2013-05-30 16:13:00,94.3,74.5,30.04,SE,125,2.1,6.0,53,0.00,FEW,,0.00,WeatherDisplay:10.37,2013-05-30 20:13:00,
2013-05-30 16:14:00,94.5,75.3,30.04,SE,138,2.4,5.8,54,0.00,FEW,,0.00,WeatherDisplay:10.37,2013-05-30 20:14:00,
2013-05-30 16:17:00,94.7,73.2,30.04,SSW,194,0.2,1.1,50,0.00,FEW,,0.00,WeatherDisplay:10.37,2013-05-30 20:17:00,
2013-05-30 16:18:00,94.7,74.9,30.04,SSW,197,0.2,1.1,53,0.00,FEW,,0.00,WeatherDisplay:10.37,2013-05-30 20:18:00,
2013-05-30 16:19:00,94.7,74.3,30.04,SSW,197,0.0,2.3,52,0.00,FEW,,0.00,WeatherDisplay:10.37,2013-05-30 20:19:00,
2013-05-30 16:22:00,94.6,73.7,30.04,SE,145,0.7,3.5,51,0.00,FEW,,0.00,WeatherDisplay:10.37,2013-05-30 20:22:00,
2013-05-30 16:23:00,94.6,75.4,30.04,ESE,123,2.7,4.6,54,0.00,FEW,,0.00,WeatherDisplay:10.37,2013-05-30 20:23:00,
2013-05-30 16:24:00,94.6,75.4,30.04,East,98,0.7,5.8,54,0.00,FEW,,0.00,WeatherDisplay:10.37,2013-05-30 20:24:00,
2013-05-30 16:27:00,94.9,74.5,30.04,SE,128,2.0,4.6,52,0.00,FEW,,0.00,WeatherDisplay:10.37,2013-05-30 20:27:00,
2013-05-30 16:28:00,94.9,75.1,30.04,ESE,114,3.3,7.0,53,0.00,FEW,,0.00,WeatherDisplay:10.37,2013-05-30 20:28:00,
2013-05-30 16:29:00,95.0,75.2,30.04,East,93,3.0,6.9,53,0.00,FEW,,0.00,WeatherDisplay:10.37,2013-05-30 20:29:00,
2013-05-30 16:30:00,95.0,74.6,30.04,SE,130,5.0,5.8,52,0.00,FEW,,0.00,WeatherDisplay:10.37,2013-05-30 20:30:00,
2013-05-30 16:32:00,95.0,72.8,30.04,SSE,161,0.1,1.1,49,0.00,FEW,,0.00,WeatherDisplay:10.37,2013-05-30 20:32:00,
2013-05-30 16:33:00,94.9,73.4,30.04,ESE,113,0.8,4.0,50,0.00,FEW,,0.00,WeatherDisplay:10.37,2013-05-30 20:33:00,
2013-05-30 16:34:00,94.8,73.8,30.04,ESE,103,2.1,4.6,51,0.00,FEW,,0.00,WeatherDisplay:10.37,2013-05-30 20:34:00,
2013-05-30 16:35:00,94.9,73.9,30.04,East,94,3.0,3.5,51,0.00,FEW,,0.00,WeatherDisplay:10.37,2013-05-30 20:35:00,
2013-05-30 16:37:00,94.8,74.4,30.04,ESE,114,4.8,6.9,52,0.00,FEW,,0.00,WeatherDisplay:10.37,2013-05-30 20:37:00,
2013-05-30 16:38:00,94.7,74.9,30.04,SE,130,2.7,6.9,53,0.00,FEW,,0.00,WeatherDisplay:10.37,2013-05-30 20:38:00,
2013-05-30 16:39:00,94.7,74.9,30.04,SE,131,1.2,3.5,53,0.00,FEW,,0.00,WeatherDisplay:10.37,2013-05-30 20:39:00,
2013-05-30 16:40:00,94.7,76.6,30.04,SE,134,0.7,3.5,56,0.00,FEW,,0.00,WeatherDisplay:10.37,2013-05-30 20:40:00,
2013-05-30 16:42:00,94.7,75.5,30.04,South,180,0.2,3.5,54,0.00,FEW,,0.00,WeatherDisplay:10.37,2013-05-30 20:42:00,
2013-05-30 16:43:00,94.7,76.0,30.03,SE,126,1.0,1.1,55,0.00,FEW,,0.00,WeatherDisplay:10.37,2013-05-30 20:43:00,
2013-05-30 16:44:00,94.9,76.7,30.03,SE,126,0.5,3.5,56,0.00,FEW,,0.00,WeatherDisplay:10.37,2013-05-30 20:44:00,
2013-05-30 16:45:00,95.0,77.4,30.03,ESE,121,0.1,1.1,57,0.00,FEW,,0.00,WeatherDisplay:10.37,2013-05-30 20:45:00,
2013-05-30 16:47:00,95.3,76.6,30.03,SE,125,1.0,4.6,55,0.00,FEW,,0.00,WeatherDisplay:10.37,2013-05-30 20:47:00,
2013-05-30 16:49:00,95.4,75.6,30.03,ESE,112,0.5,2.3,53,0.00,FEW,,0.00,WeatherDisplay:10.37,2013-05-30 20:49:00,
2013-05-30 16:50:00,95.5,76.8,30.03,ESE,112,0.0,1.1,55,0.00,FEW,,0.00,WeatherDisplay:10.37,2013-05-30 20:50:00,
2013-05-30 16:52:00,95.4,75.0,30.03,SSW,210,2.7,4.6,52,0.00,FEW,,0.00,WeatherDisplay:10.37,2013-05-30 20:52:00,
2013-05-30 16:54:00,95.3,74.9,30.03,SW,228,0.6,3.0,52,0.00,FEW,,0.00,WeatherDisplay:10.37,2013-05-30 20:54:00,
2013-05-30 16:55:00,95.1,75.8,30.03,SW,235,1.0,3.5,54,0.00,FEW,,0.00,WeatherDisplay:10.37,2013-05-30 20:55:00,
2013-05-30 16:57:00,94.8,75.0,30.03,SW,234,0.0,0.0,53,0.00,FEW,,0.00,WeatherDisplay:10.37,2013-05-30 20:57:00,
2013-05-30 16:59:00,94.3,74.0,30.03,West,270,1.0,3.5,52,0.00,FEW,,0.00,WeatherDisplay:10.37,2013-05-30 20:59:00,
2013-05-30 17:00:00,93.9,72.4,30.03,West,268,0.5,3.5,50,0.00,FEW,,0.00,WeatherDisplay:10.37,2013-05-30 21:00:00,
2013-05-30 17:01:00,93.7,72.3,30.03,West,268,0.1,1.1,50,0.00,FEW,,0.00,WeatherDisplay:10.37,2013-05-30 21:01:00,
2013-05-30 17:02:00,93.3,74.7,30.03,West,268,0.0,0.0,55,0.00,FEW,,0.00,WeatherDisplay:10.37,2013-05-30 21:02:00,
2013-05-30 17:04:00,93.2,74.1,30.02,West,268,0.0,0.0,54,0.00,FEW,,0.00,WeatherDisplay:10.37,2013-05-30 21:04:00,
2013-05-30 17:06:00,93.2,73.0,30.03,West,268,0.0,0.0,52,0.00,FEW,,0.00,WeatherDisplay:10.37,2013-05-30 21:06:00,
2013-05-30 17:08:00,93.3,75.3,30.02,South,174,1.2,3.5,56,0.00,FEW,,0.00,WeatherDisplay:10.37,2013-05-30 21:08:00,
2013-05-30 17:09:00,93.4,73.7,30.03,South,182,0.4,2.3,53,0.00,FEW,,0.00,WeatherDisplay:10.37,2013-05-30 21:09:00,
2013-05-30 17:11:00,93.5,72.7,30.02,South,182,0.7,3.5,51,0.00,FEW,,0.00,WeatherDisplay:10.37,2013-05-30 21:11:00,
2013-05-30 17:13:00,93.6,75.0,30.02,South,176,0.5,3.5,55,0.00,FEW,,0.00,WeatherDisplay:10.37,2013-05-30 21:13:00,
2013-05-30 17:14:00,93.6,75.0,30.02,South,176,0.0,0.0,55,0.00,FEW,,0.00,WeatherDisplay:10.37,2013-05-30 21:14:00,
2013-05-30 17:15:00,93.6,74.5,30.02,South,176,0.0,1.0,54,0.00,FEW,,0.00,WeatherDisplay:10.37,2013-05-30 21:15:00,
2013-05-30 17:17:00,93.7,73.4,30.02,SW,222,0.3,2.0,52,0.00,FEW,,0.00,WeatherDisplay:10.37,2013-05-30 21:17:00,
2013-05-30 17:18:00,93.4,72.0,30.02,SW,224,0.9,4.6,50,0.00,FEW,,0.00,WeatherDisplay:10.37,2013-05-30 21:18:00,
2013-05-30 17:20:00,93.2,73.5,30.02,SW,223,0.0,1.1,53,0.00,FEW,,0.00,WeatherDisplay:10.37,2013-05-30 21:20:00,
2013-05-30 17:22:00,93.1,74.0,30.02,SW,221,0.2,1.1,54,0.00,FEW,,0.00,WeatherDisplay:10.37,2013-05-30 21:22:00,
2013-05-30 17:23:00,93.1,74.0,30.02,SW,220,0.0,1.1,54,0.00,FEW,,0.00,WeatherDisplay:10.37,2013-05-30 21:23:00,
2013-05-30 17:25:00,93.0,74.4,30.02,SE,134,2.4,5.8,55,0.00,FEW,,0.00,WeatherDisplay:10.37,2013-05-30 21:25:00,
2013-05-30 17:27:00,92.8,74.3,30.02,SE,134,0.1,1.1,55,0.00,FEW,,0.00,WeatherDisplay:10.37,2013-05-30 21:27:00,
2013-05-30 17:28:00,92.7,74.7,30.02,SE,134,0.0,0.0,56,0.00,FEW,,0.00,WeatherDisplay:10.37,2013-05-30 21:28:00,
2013-05-30 17:30:00,92.5,74.0,30.02,SE,134,0.0,0.0,55,0.00,FEW,,0.00,WeatherDisplay:10.37,2013-05-30 21:30:00,
2013-05-30 17:32:00,92.4,74.4,30.01,SE,134,0.0,3.5,56,0.00,FEW,,0.00,WeatherDisplay:10.37,2013-05-30 21:32:00,
2013-05-30 17:33:00,92.3,73.8,30.01,SE,134,0.0,0.0,55,0.00,FEW,,0.00,WeatherDisplay:10.37,2013-05-30 21:33:00,
2013-05-30 17:35:00,92.4,75.5,30.01,SE,134,0.2,1.1,58,0.00,FEW,,0.00,WeatherDisplay:10.37,2013-05-30 21:35:00,
2013-05-30 17:37:00,92.5,76.1,30.01,SE,134,0.0,1.0,59,0.00,FEW,,0.00,WeatherDisplay:10.37,2013-05-30 21:37:00,
2013-05-30 17:38:00,92.6,76.2,30.01,SE,134,0.0,1.1,59,0.00,FEW,,0.00,WeatherDisplay:10.37,2013-05-30 21:38:00,
2013-05-30 17:40:00,92.7,76.3,30.01,SE,134,0.1,1.1,59,0.00,FEW,,0.00,WeatherDisplay:10.37,2013-05-30 21:40:00,
2013-05-30 17:41:00,92.8,75.8,30.01,SE,134,0.0,1.1,58,0.00,FEW,,0.00,WeatherDisplay:10.37,2013-05-30 21:41:00,
2013-05-30 17:42:00,92.9,75.9,30.01,SE,134,0.0,1.1,58,0.00,FEW,,0.00,WeatherDisplay:10.37,2013-05-30 21:42:00,
2013-05-30 17:44:00,93.0,76.0,30.01,SE,134,0.6,2.3,58,0.00,FEW,,0.00,WeatherDisplay:10.37,2013-05-30 21:44:00,
2013-05-30 17:45:00,93.3,75.8,30.01,SE,134,0.9,3.5,57,0.00,FEW,,0.00,WeatherDisplay:10.37,2013-05-30 21:45:00,
2013-05-30 17:46:00,93.3,75.8,30.01,South,172,0.4,3.5,57,0.00,FEW,,0.00,WeatherDisplay:10.37,2013-05-30 21:46:00,
2013-05-30 17:47:00,93.4,74.8,30.01,ESE,121,1.8,3.5,55,0.00,FEW,,0.00,WeatherDisplay:10.37,2013-05-30 21:47:00,
2013-05-30 17:48:00,93.4,74.8,30.01,ESE,121,1.0,3.5,55,0.00,FEW,,0.00,WeatherDisplay:10.37,2013-05-30 21:48:00,
2013-05-30 17:49:00,93.4,74.3,30.01,SSE,147,0.1,1.1,54,0.00,FEW,,0.00,WeatherDisplay:10.37,2013-05-30 21:49:00,
2013-05-30 17:50:00,93.4,74.8,30.01,SSE,147,0.0,0.0,55,0.00,FEW,,0.00,WeatherDisplay:10.37,2013-05-30 21:50:00,
2013-05-30 17:51:00,93.4,74.8,30.01,SSE,147,0.0,1.1,55,0.00,FEW,,0.00,WeatherDisplay:10.37,2013-05-30 21:51:00,
2013-05-30 17:53:00,93.4,73.7,30.01,SSE,147,0.0,0.0,53,0.00,FEW,,0.00,WeatherDisplay:10.37,2013-05-30 21:53:00,
2013-05-30 17:54:00,93.4,74.8,30.01,SSE,147,0.0,1.1,55,0.00,FEW,,0.00,WeatherDisplay:10.37,2013-05-30 21:54:00,
2013-05-30 17:56:00,93.4,73.7,30.01,South,190,3.2,4.6,53,0.00,FEW,,0.00,WeatherDisplay:10.37,2013-05-30 21:56:00,
2013-05-30 17:57:00,93.3,72.5,30.01,South,190,0.5,3.5,51,0.00,FEW,,0.00,WeatherDisplay:10.37,2013-05-30 21:57:00,
2013-05-30 17:58:00,93.1,72.3,30.01,SSW,192,0.6,3.5,51,0.00,FEW,,0.00,WeatherDisplay:10.37,2013-05-30 21:58:00,
2013-05-30 17:59:00,92.9,72.7,30.01,SSW,194,0.3,3.5,52,0.00,FEW,,0.00,WeatherDisplay:10.37,2013-05-30 21:59:00,
2013-05-30 18:01:00,92.4,72.8,30.01,SSW,194,0.1,1.1,53,0.00,BKN,,0.00,WeatherDisplay:10.37,2013-05-30 22:01:00,
2013-05-30 18:02:00,92.1,74.1,30.01,WSW,238,0.6,3.0,56,0.00,BKN,,0.00,WeatherDisplay:10.37,2013-05-30 22:02:00,
2013-05-30 18:03:00,91.6,72.6,30.01,WSW,254,0.0,3.5,54,0.00,BKN,,0.00,WeatherDisplay:10.37,2013-05-30 22:03:00,
2013-05-30 18:04:00,91.5,73.1,30.01,WSW,254,0.0,1.1,55,0.00,BKN,,0.00,WeatherDisplay:10.37,2013-05-30 22:04:00,
2013-05-30 18:05:00,91.4,73.0,30.01,WSW,251,0.0,0.0,55,0.00,BKN,,0.00,WeatherDisplay:10.37,2013-05-30 22:05:00,
2013-05-30 18:06:00,91.3,74.4,30.01,WSW,251,0.1,1.1,58,0.00,BKN,,0.00,WeatherDisplay:10.37,2013-05-30 22:06:00,
2013-05-30 18:07:00,91.3,74.4,30.01,WSW,251,0.0,0.0,58,0.00,BKN,,0.00,WeatherDisplay:10.37,2013-05-30 22:07:00,
2013-05-30 18:08:00,91.2,73.8,30.01,WSW,250,0.0,0.0,57,0.00,BKN,,0.00,WeatherDisplay:10.37,2013-05-30 22:08:00,
2013-05-30 18:09:00,91.2,74.4,30.01,WSW,250,0.0,0.0,58,0.00,BKN,,0.00,WeatherDisplay:10.37,2013-05-30 22:09:00,
2013-05-30 18:10:00,91.2,73.8,30.01,WSW,250,0.0,0.0,57,0.00,BKN,,0.00,WeatherDisplay:10.37,2013-05-30 22:10:00,
2013-05-30 18:11:00,91.1,73.7,30.01,WSW,250,0.0,0.0,57,0.00,BKN,,0.00,WeatherDisplay:10.37,2013-05-30 22:11:00,
2013-05-30 18:12:00,91.1,73.7,30.01,WSW,250,0.0,0.0,57,0.00,BKN,,0.00,WeatherDisplay:10.37,2013-05-30 22:12:00,
2013-05-30 18:14:00,91.0,73.7,30.01,WSW,244,0.1,1.0,57,0.00,BKN,,0.00,WeatherDisplay:10.37,2013-05-30 22:14:00,
2013-05-30 18:15:00,90.9,73.6,30.01,SSW,195,1.7,3.5,57,0.00,BKN,,0.00,WeatherDisplay:10.37,2013-05-30 22:15:00,
2013-05-30 18:16:00,90.9,73.6,30.01,SSW,195,0.4,3.5,57,0.00,BKN,,0.00,WeatherDisplay:10.37,2013-05-30 22:16:00,
2013-05-30 18:17:00,90.9,74.1,30.01,SSW,195,0.0,0.0,58,0.00,BKN,,0.00,WeatherDisplay:10.37,2013-05-30 22:17:00,
2013-05-30 18:19:00,90.9,74.6,30.01,SSW,195,0.1,0.0,59,0.00,BKN,,0.00,WeatherDisplay:10.37,2013-05-30 22:19:00,
2013-05-30 18:20:00,91.0,74.7,30.01,SSW,195,0.1,1.1,59,0.00,BKN,,0.00,WeatherDisplay:10.37,2013-05-30 22:20:00,
2013-05-30 18:22:00,91.3,74.4,30.01,SSW,195,0.2,2.0,58,0.00,BKN,,0.00,WeatherDisplay:10.37,2013-05-30 22:22:00,
2013-05-30 18:23:00,91.4,74.0,30.01,SSW,195,0.9,3.5,57,0.00,BKN,,0.00,WeatherDisplay:10.37,2013-05-30 22:23:00,
2013-05-30 18:24:00,91.5,74.1,30.01,SSW,195,0.5,2.3,57,0.00,BKN,,0.00,WeatherDisplay:10.37,2013-05-30 22:24:00,
2013-05-30 18:25:00,91.5,74.1,30.01,SSW,195,0.1,1.1,57,0.00,BKN,,0.00,WeatherDisplay:10.37,2013-05-30 22:25:00,
2013-05-30 18:27:00,91.5,74.6,30.01,SSW,195,0.1,1.1,58,0.00,BKN,,0.00,WeatherDisplay:10.37,2013-05-30 22:27:00,
2013-05-30 18:28:00,91.5,75.1,30.01,SSW,195,0.0,0.0,59,0.00,BKN,,0.00,WeatherDisplay:10.37,2013-05-30 22:28:00,
2013-05-30 18:29:00,91.5,75.1,30.01,SSW,195,0.0,1.1,59,0.00,BKN,,0.00,WeatherDisplay:10.37,2013-05-30 22:29:00,
2013-05-30 18:30:00,91.5,74.1,30.01,SSW,195,0.0,1.1,57,0.00,BKN,,0.00,WeatherDisplay:10.37,2013-05-30 22:30:00,
2013-05-30 18:32:00,91.5,75.7,30.01,SSW,195,0.0,1.1,60,0.00,BKN,,0.00,WeatherDisplay:10.37,2013-05-30 22:32:00,
2013-05-30 18:33:00,91.4,75.1,30.01,SSW,195,0.0,1.1,59,0.00,BKN,,0.00,WeatherDisplay:10.37,2013-05-30 22:33:00,
2013-05-30 18:34:00,91.4,75.1,30.01,SSW,195,0.1,2.0,59,0.00,BKN,,0.00,WeatherDisplay:10.37,2013-05-30 22:34:00,
2013-05-30 18:35:00,91.2,74.9,30.01,SSW,195,1.1,3.5,59,0.00,BKN,,0.00,WeatherDisplay:10.37,2013-05-30 22:35:00,
2013-05-30 18:36:00,91.2,74.9,30.01,SSW,195,1.1,3.5,59,0.00,BKN,,0.00,WeatherDisplay:10.37,2013-05-30 22:36:00,
2013-05-30 18:37:00,91.2,75.4,30.01,SSW,197,0.2,1.1,60,0.00,BKN,,0.00,WeatherDisplay:10.37,2013-05-30 22:37:00,
2013-05-30 18:38:00,91.1,74.8,30.01,SSW,194,1.4,3.5,59,0.00,BKN,,0.00,WeatherDisplay:10.37,2013-05-30 22:38:00,
2013-05-30 18:39:00,91.0,74.7,30.01,SSW,194,0.1,3.5,59,0.00,BKN,,0.00,WeatherDisplay:10.37,2013-05-30 22:39:00,
2013-05-30 18:40:00,90.9,74.6,30.01,SSW,195,0.1,1.1,59,0.00,BKN,,0.00,WeatherDisplay:10.37,2013-05-30 22:40:00,
2013-05-30 18:41:00,90.9,74.6,30.01,SSW,195,0.1,1.1,59,0.00,BKN,,0.00,WeatherDisplay:10.37,2013-05-30 22:41:00,
2013-05-30 18:42:00,90.9,74.6,30.01,SSW,194,0.0,3.5,59,0.00,BKN,,0.00,WeatherDisplay:10.37,2013-05-30 22:42:00,
2013-05-30 18:43:00,90.8,74.5,30.01,SSW,195,0.1,1.1,59,0.00,BKN,,0.00,WeatherDisplay:10.37,2013-05-30 22:43:00,
2013-05-30 18:44:00,90.8,75.0,30.01,SSW,194,0.2,1.1,60,0.00,BKN,,0.00,WeatherDisplay:10.37,2013-05-30 22:44:00,
2013-05-30 18:46:00,90.8,76.0,30.01,SSW,195,0.1,1.1,62,0.00,BKN,,0.00,WeatherDisplay:10.37,2013-05-30 22:46:00,
2013-05-30 18:47:00,90.9,75.1,30.01,SSW,194,0.2,2.0,60,0.00,BKN,,0.00,WeatherDisplay:10.37,2013-05-30 22:47:00,
2013-05-30 18:49:00,90.9,75.6,30.01,SSW,194,0.0,3.5,61,0.00,BKN,,0.00,WeatherDisplay:10.37,2013-05-30 22:49:00,
2013-05-30 18:51:00,90.9,75.6,30.01,SSW,195,0.0,0.0,61,0.00,BKN,,0.00,WeatherDisplay:10.37,2013-05-30 22:51:00,
2013-05-30 18:52:00,91.0,75.7,30.01,SSW,195,0.0,0.0,61,0.00,BKN,,0.00,WeatherDisplay:10.37,2013-05-30 22:52:00,
2013-05-30 18:54:00,91.0,75.7,30.01,SSW,195,0.0,1.1,61,0.00,BKN,,0.00,WeatherDisplay:10.37,2013-05-30 22:54:00,
2013-05-30 18:56:00,91.0,75.2,30.01,SSW,194,0.1,1.1,60,0.00,BKN,,0.00,WeatherDisplay:10.37,2013-05-30 22:56:00,
2013-05-30 18:57:00,91.0,75.2,30.01,SSW,194,0.1,1.1,60,0.00,BKN,,0.00,WeatherDisplay:10.37,2013-05-30 22:57:00,
2013-05-30 18:58:00,91.0,75.2,30.01,SSW,194,0.0,0.0,60,0.00,BKN,,0.00,WeatherDisplay:10.37,2013-05-30 22:58:00,
2013-05-30 18:59:00,90.9,76.1,30.01,SSW,195,0.1,1.1,62,0.00,BKN,,0.00,WeatherDisplay:10.37,2013-05-30 22:59:00,
2013-05-30 19:00:00,90.9,76.6,30.01,SSW,194,0.1,0.0,63,0.00,BKN,,0.00,WeatherDisplay:10.37,2013-05-30 23:00:00,
2013-05-30 19:01:00,90.9,75.6,30.01,South,190,1.2,1.2,61,0.00,BKN,,0.00,WeatherDisplay:10.37,2013-05-30 23:01:00,
2013-05-30 19:02:00,90.8,75.5,30.01,South,190,0.4,3.5,61,0.00,BKN,,0.00,WeatherDisplay:10.37,2013-05-30 23:02:00,
2013-05-30 19:03:00,90.8,76.0,30.01,South,190,0.1,1.1,62,0.00,BKN,,0.00,WeatherDisplay:10.37,2013-05-30 23:03:00,
2013-05-30 19:04:00,90.7,75.4,30.01,South,190,0.5,3.5,61,0.00,BKN,,0.00,WeatherDisplay:10.37,2013-05-30 23:04:00,
2013-05-30 19:05:00,90.7,75.4,30.01,South,190,1.0,3.5,61,0.00,BKN,,0.00,WeatherDisplay:10.37,2013-05-30 23:05:00,
2013-05-30 19:07:00,90.6,75.3,30.01,South,190,0.0,1.1,61,0.00,BKN,,0.00,WeatherDisplay:10.37,2013-05-30 23:07:00,
2013-05-30 19:08:00,90.5,75.2,30.01,South,190,0.6,2.3,61,0.00,BKN,,0.00,WeatherDisplay:10.37,2013-05-30 23:08:00,
2013-05-30 19:09:00,90.4,76.1,30.01,South,190,0.0,3.5,63,0.00,BKN,,0.00,WeatherDisplay:10.37,2013-05-30 23:09:00,
2013-05-30 19:10:00,90.4,75.6,30.01,South,190,0.0,1.1,62,0.00,BKN,,0.00,WeatherDisplay:10.37,2013-05-30 23:10:00,
2013-05-30 19:12:00,90.3,75.5,30.01,South,190,0.0,0.0,62,0.00,BKN,,0.00,WeatherDisplay:10.37,2013-05-30 23:12:00,
2013-05-30 19:13:00,90.3,75.0,30.01,South,190,0.0,0.0,61,0.00,BKN,,0.00,WeatherDisplay:10.37,2013-05-30 23:13:00,
2013-05-30 19:14:00,90.2,74.9,30.01,South,190,0.6,2.0,61,0.00,BKN,,0.00,WeatherDisplay:10.37,2013-05-30 23:14:00,
2013-05-30 19:15:00,90.1,74.8,30.01,South,190,0.4,3.5,61,0.00,BKN,,0.00,WeatherDisplay:10.37,2013-05-30 23:15:00,
2013-05-30 19:17:00,90.0,75.2,30.01,South,190,0.0,0.0,62,0.00,BKN,,0.00,WeatherDisplay:10.37,2013-05-30 23:17:00,
2013-05-30 19:18:00,90.0,75.2,30.01,South,190,0.0,1.1,62,0.00,BKN,,0.00,WeatherDisplay:10.37,2013-05-30 23:18:00,
2013-05-30 19:20:00,89.9,75.1,30.01,South,191,0.0,0.0,62,0.00,BKN,,0.00,WeatherDisplay:10.37,2013-05-30 23:20:00,
2013-05-30 19:22:00,89.8,75.5,30.01,South,190,0.0,1.1,63,0.00,BKN,,0.00,WeatherDisplay:10.37,2013-05-30 23:22:00,
2013-05-30 19:23:00,89.8,76.0,30.01,SSE,161,0.1,0.0,64,0.00,BKN,,0.00,WeatherDisplay:10.37,2013-05-30 23:23:00,
2013-05-30 19:24:00,89.8,76.5,30.01,SSE,162,0.0,1.1,65,0.00,BKN,,0.00,WeatherDisplay:10.37,2013-05-30 23:24:00,
2013-05-30 19:25:00,89.7,75.4,30.01,South,179,0.0,1.1,63,0.00,BKN,,0.00,WeatherDisplay:10.37,2013-05-30 23:25:00,
2013-05-30 19:27:00,89.6,75.8,30.01,South,179,0.0,0.0,64,0.00,BKN,,0.00,WeatherDisplay:10.37,2013-05-30 23:27:00,
2013-05-30 19:29:00,89.7,77.3,30.01,South,179,0.0,0.0,67,0.00,BKN,,0.00,WeatherDisplay:10.37,2013-05-30 23:29:00,
2013-05-30 19:30:00,89.7,77.3,30.01,South,179,0.0,0.0,67,0.00,BKN,,0.00,WeatherDisplay:10.37,2013-05-30 23:30:00,
2013-05-30 19:33:00,89.6,77.2,30.01,South,179,0.0,0.0,67,0.00,BKN,,0.00,WeatherDisplay:10.37,2013-05-30 23:33:00,
2013-05-30 19:34:00,89.5,76.6,30.01,South,179,0.0,0.0,66,0.00,BKN,,0.00,WeatherDisplay:10.37,2013-05-30 23:34:00,
2013-05-30 19:35:00,89.4,77.0,30.01,South,179,0.0,0.0,67,0.00,BKN,,0.00,WeatherDisplay:10.37,2013-05-30 23:35:00,
2013-05-30 19:36:00,89.3,76.9,30.01,South,179,0.1,1.1,67,0.00,BKN,,0.00,WeatherDisplay:10.37,2013-05-30 23:36:00,
2013-05-30 19:38:00,89.1,77.6,30.02,South,179,0.0,0.0,69,0.00,BKN,,0.00,WeatherDisplay:10.37,2013-05-30 23:38:00,
2013-05-30 19:39:00,89.0,77.5,30.01,South,179,0.0,0.0,69,0.00,BKN,,0.00,WeatherDisplay:10.37,2013-05-30 23:39:00,
2013-05-30 19:40:00,89.0,77.9,30.01,South,179,0.0,0.0,70,0.00,BKN,,0.00,WeatherDisplay:10.37,2013-05-30 23:40:00,
2013-05-30 19:41:00,88.9,77.4,30.01,South,179,0.0,0.0,69,0.00,BKN,,0.00,WeatherDisplay:10.37,2013-05-30 23:41:00,
2013-05-30 19:43:00,88.7,76.8,30.01,South,179,0.0,0.0,68,0.00,BKN,,0.00,WeatherDisplay:10.37,2013-05-30 23:43:00,
2013-05-30 19:44:00,88.6,76.7,30.01,South,179,0.0,0.0,68,0.00,BKN,,0.00,WeatherDisplay:10.37,2013-05-30 23:44:00,
2013-05-30 19:45:00,88.6,78.0,30.01,South,179,0.0,0.0,71,0.00,BKN,,0.00,WeatherDisplay:10.37,2013-05-30 23:45:00,
2013-05-30 19:46:00,88.6,77.1,30.01,South,179,0.0,0.0,69,0.00,BKN,,0.00,WeatherDisplay:10.37,2013-05-30 23:46:00,
2013-05-30 19:48:00,88.4,76.9,30.01,South,179,0.0,0.0,69,0.00,BKN,,0.00,WeatherDisplay:10.37,2013-05-30 23:48:00,
2013-05-30 19:49:00,88.3,77.7,30.01,South,179,0.0,0.0,71,0.00,BKN,,0.00,WeatherDisplay:10.37,2013-05-30 23:49:00,
2013-05-30 19:51:00,88.1,77.9,30.01,South,179,0.0,0.0,72,0.00,BKN,,0.00,WeatherDisplay:10.37,2013-05-30 23:51:00,
2013-05-30 19:52:00,88.1,77.9,30.01,South,179,0.0,0.0,72,0.00,BKN,,0.00,WeatherDisplay:10.37,2013-05-30 23:52:00,
2013-05-30 19:53:00,87.9,77.3,30.01,South,180,0.0,0.0,71,0.00,BKN,,0.00,WeatherDisplay:10.37,2013-05-30 23:53:00,
2013-05-30 19:55:00,87.7,77.1,30.01,South,179,0.0,0.0,71,0.00,BKN,,0.00,WeatherDisplay:10.37,2013-05-30 23:55:00,
2013-05-30 19:56:00,87.6,77.0,30.02,South,179,0.0,0.0,71,0.00,BKN,,0.00,WeatherDisplay:10.37,2013-05-30 23:56:00,
2013-05-30 19:57:00,87.6,77.0,30.01,South,179,0.0,0.0,71,0.00,BKN,,0.00,WeatherDisplay:10.37,2013-05-30 23:57:00,
2013-05-30 19:58:00,87.4,76.8,30.01,South,179,0.0,0.0,71,0.00,BKN,,0.00,WeatherDisplay:10.37,2013-05-30 23:58:00,
2013-05-30 20:00:00,87.3,76.7,30.01,South,179,0.0,0.0,71,0.00,BKN,,0.00,WeatherDisplay:10.37,2013-05-31 00:00:00,
2013-05-30 20:01:00,87.1,76.5,30.02,South,179,0.0,0.0,71,0.00,BKN,,0.00,WeatherDisplay:10.37,2013-05-31 00:01:00,
2013-05-30 20:02:00,87.1,76.5,30.02,South,179,0.0,0.0,71,0.00,BKN,,0.00,WeatherDisplay:10.37,2013-05-31 00:02:00,
2013-05-30 20:04:00,86.9,76.4,30.01,South,179,0.0,0.0,71,0.00,BKN,,0.00,WeatherDisplay:10.37,2013-05-31 00:04:00,
2013-05-30 20:05:00,86.8,76.7,30.01,South,179,0.0,0.0,72,0.00,BKN,,0.00,WeatherDisplay:10.37,2013-05-31 00:05:00,
2013-05-30 20:06:00,86.6,76.5,30.01,South,179,0.0,0.0,72,0.00,BKN,,0.00,WeatherDisplay:10.37,2013-05-31 00:06:00,
2013-05-30 20:07:00,86.5,76.4,30.01,South,179,0.0,0.0,72,0.00,BKN,,0.00,WeatherDisplay:10.37,2013-05-31 00:07:00,
2013-05-30 20:08:00,86.4,75.9,30.02,South,179,0.0,0.0,71,0.00,BKN,,0.00,WeatherDisplay:10.37,2013-05-31 00:08:00,
2013-05-30 20:09:00,86.2,76.5,30.02,South,179,0.0,0.0,73,0.00,BKN,,0.00,WeatherDisplay:10.37,2013-05-31 00:09:00,
2013-05-30 20:10:00,86.1,76.4,30.02,South,179,0.0,0.0,73,0.00,BKN,,0.00,WeatherDisplay:10.37,2013-05-31 00:10:00,
2013-05-30 20:12:00,85.8,75.7,30.02,South,180,0.0,0.0,72,0.00,BKN,,0.00,WeatherDisplay:10.37,2013-05-31 00:12:00,
2013-05-30 20:13:00,85.8,75.7,30.02,South,179,0.0,0.0,72,0.00,BKN,,0.00,WeatherDisplay:10.37,2013-05-31 00:13:00,
2013-05-30 20:14:00,85.6,75.5,30.02,South,179,0.0,0.0,72,0.00,BKN,,0.00,WeatherDisplay:10.37,2013-05-31 00:14:00,
2013-05-30 20:15:00,85.6,75.5,30.02,South,179,0.0,0.0,72,0.00,BKN,,0.00,WeatherDisplay:10.37,2013-05-31 00:15:00,
2013-05-30 20:17:00,85.4,75.3,30.02,South,179,0.0,0.0,72,0.00,BKN,,0.00,WeatherDisplay:10.37,2013-05-31 00:17:00,
2013-05-30 20:18:00,85.3,75.2,30.02,South,179,0.0,0.0,72,0.00,BKN,,0.00,WeatherDisplay:10.37,2013-05-31 00:18:00,
2013-05-30 20:19:00,85.3,75.7,30.02,South,180,0.0,0.0,73,0.00,BKN,,0.00,WeatherDisplay:10.37,2013-05-31 00:19:00,
2013-05-30 20:20:00,85.2,75.6,30.02,South,180,0.0,0.0,73,0.00,BKN,,0.00,WeatherDisplay:10.37,2013-05-31 00:20:00,
2013-05-30 20:23:00,85.0,76.2,30.02,South,180,0.0,1.1,75,0.00,BKN,,0.00,WeatherDisplay:10.37,2013-05-31 00:23:00,
2013-05-30 20:25:00,84.8,75.6,30.02,South,181,0.0,0.0,74,0.00,BKN,,0.00,WeatherDisplay:10.37,2013-05-31 00:25:00,
2013-05-30 20:28:00,84.5,75.3,30.02,South,181,0.0,0.0,74,0.00,BKN,,0.00,WeatherDisplay:10.37,2013-05-31 00:28:00,
2013-05-30 20:29:00,84.4,74.8,30.02,South,181,0.0,0.0,73,0.00,BKN,,0.00,WeatherDisplay:10.37,2013-05-31 00:29:00,
2013-05-30 20:30:00,84.4,75.2,30.02,South,182,0.0,0.0,74,0.00,BKN,,0.00,WeatherDisplay:10.37,2013-05-31 00:30:00,
2013-05-30 20:33:00,84.2,75.0,30.02,South,183,0.0,0.0,74,0.00,BKN,,0.00,WeatherDisplay:10.37,2013-05-31 00:33:00,
2013-05-30 20:34:00,84.1,75.3,30.02,South,182,0.0,0.0,75,0.00,BKN,,0.00,WeatherDisplay:10.37,2013-05-31 00:34:00,
2013-05-30 20:35:00,84.1,74.9,30.02,South,182,0.0,0.0,74,0.00,BKN,,0.00,WeatherDisplay:10.37,2013-05-31 00:35:00,
2013-05-30 20:38:00,83.9,74.7,30.02,South,183,0.0,0.0,74,0.00,BKN,,0.00,WeatherDisplay:10.37,2013-05-31 00:38:00,
2013-05-30 20:39:00,83.8,74.6,30.02,South,182,0.0,0.0,74,0.00,BKN,,0.00,WeatherDisplay:10.37,2013-05-31 00:39:00,
2013-05-30 20:40:00,83.8,74.6,30.02,South,183,0.0,0.0,74,0.00,BKN,,0.00,WeatherDisplay:10.37,2013-05-31 00:40:00,
2013-05-30 20:41:00,83.7,74.9,30.02,South,183,0.0,0.0,75,0.00,BKN,,0.00,WeatherDisplay:10.37,2013-05-31 00:41:00,
2013-05-30 20:43:00,83.6,74.4,30.02,South,183,0.0,0.0,74,0.00,BKN,,0.00,WeatherDisplay:10.37,2013-05-31 00:43:00,
2013-05-30 20:44:00,83.6,74.4,30.02,South,183,0.0,0.0,74,0.00,BKN,,0.00,WeatherDisplay:10.37,2013-05-31 00:44:00,
2013-05-30 20:45:00,83.5,74.3,30.02,South,183,0.0,0.0,74,0.00,BKN,,0.00,WeatherDisplay:10.37,2013-05-31 00:45:00,
2013-05-30 20:46:00,83.4,74.2,30.02,South,183,0.0,0.0,74,0.00,BKN,,0.00,WeatherDisplay:10.37,2013-05-31 00:46:00,
2013-05-30 20:49:00,83.2,74.4,30.02,South,183,0.0,0.0,75,0.00,BKN,,0.00,WeatherDisplay:10.37,2013-05-31 00:49:00,
2013-05-30 20:50:00,83.1,73.9,30.02,South,183,0.0,0.0,74,0.00,BKN,,0.00,WeatherDisplay:10.37,2013-05-31 00:50:00,
2013-05-30 20:51:00,82.9,74.6,30.02,South,183,0.0,0.0,76,0.00,BKN,,0.00,WeatherDisplay:10.37,2013-05-31 00:51:00,
2013-05-30 20:54:00,82.5,73.4,30.02,South,183,0.0,0.0,74,0.00,BKN,,0.00,WeatherDisplay:10.37,2013-05-31 00:54:00,
2013-05-30 20:55:00,82.4,74.1,30.02,South,182,0.0,0.0,76,0.00,BKN,,0.00,WeatherDisplay:10.37,2013-05-31 00:55:00,
2013-05-30 20:56:00,82.2,73.5,30.02,South,183,0.0,0.0,75,0.00,BKN,,0.00,WeatherDisplay:10.37,2013-05-31 00:56:00,
2013-05-30 21:00:00,81.9,74.0,30.03,South,183,0.0,0.0,77,0.00,BKN,,0.00,WeatherDisplay:10.37,2013-05-31 01:00:00,
2013-05-30 21:01:00,81.7,73.8,30.03,South,183,0.0,0.0,77,0.00,BKN,,0.00,WeatherDisplay:10.37,2013-05-31 01:01:00,
2013-05-30 21:05:00,81.6,73.7,30.03,South,183,0.0,0.0,77,0.00,BKN,,0.00,WeatherDisplay:10.37,2013-05-31 01:05:00,
2013-05-30 21:06:00,81.6,73.7,30.03,South,182,0.0,0.0,77,0.00,BKN,,0.00,WeatherDisplay:10.37,2013-05-31 01:06:00,
2013-05-30 21:07:00,81.6,73.7,30.03,South,183,0.0,0.0,77,0.00,BKN,,0.00,WeatherDisplay:10.37,2013-05-31 01:07:00,
2013-05-30 21:10:00,81.6,73.3,30.03,South,183,0.0,0.0,76,0.00,BKN,,0.00,WeatherDisplay:10.37,2013-05-31 01:10:00,
2013-05-30 21:11:00,81.6,73.3,30.03,South,182,0.0,0.0,76,0.00,BKN,,0.00,WeatherDisplay:10.37,2013-05-31 01:11:00,
2013-05-30 21:13:00,81.5,73.6,30.03,South,183,0.0,1.1,77,0.00,BKN,,0.00,WeatherDisplay:10.37,2013-05-31 01:13:00,
2013-05-30 21:16:00,81.5,73.6,30.03,SW,228,0.0,1.1,77,0.00,BKN,,0.00,WeatherDisplay:10.37,2013-05-31 01:16:00,
2013-05-30 21:17:00,81.4,73.5,30.03,SW,228,0.0,0.0,77,0.00,BKN,,0.00,WeatherDisplay:10.37,2013-05-31 01:17:00,
2013-05-30 21:18:00,81.3,73.4,30.03,SW,228,0.0,0.0,77,0.00,BKN,,0.00,WeatherDisplay:10.37,2013-05-31 01:18:00,
2013-05-30 21:21:00,81.2,73.7,30.03,SW,228,0.1,3.0,78,0.00,BKN,,0.00,WeatherDisplay:10.37,2013-05-31 01:21:00,
2013-05-30 21:22:00,81.2,73.7,30.03,SSW,202,1.5,3.5,78,0.00,BKN,,0.00,WeatherDisplay:10.37,2013-05-31 01:22:00,
2013-05-30 21:23:00,81.2,73.7,30.03,SSW,202,0.2,1.1,78,0.00,BKN,,0.00,WeatherDisplay:10.37,2013-05-31 01:23:00,
2013-05-30 21:24:00,81.2,73.7,30.03,SSW,203,0.2,1.1,78,0.00,BKN,,0.00,WeatherDisplay:10.37,2013-05-31 01:24:00,
2013-05-30 21:26:00,81.2,73.7,30.04,SSW,211,0.0,0.0,78,0.00,BKN,,0.00,WeatherDisplay:10.37,2013-05-31 01:26:00,
2013-05-30 21:27:00,81.2,73.7,30.04,SW,216,1.2,2.3,78,0.00,BKN,,0.00,WeatherDisplay:10.37,2013-05-31 01:27:00,
2013-05-30 21:29:00,81.2,73.7,30.04,SW,216,0.1,1.1,78,0.00,BKN,,0.00,WeatherDisplay:10.37,2013-05-31 01:29:00,
2013-05-30 21:31:00,81.2,73.3,30.04,SW,214,0.1,3.5,77,0.00,BKN,,0.00,WeatherDisplay:10.37,2013-05-31 01:31:00,
2013-05-30 21:32:00,81.2,73.3,30.04,SSW,213,0.5,2.0,77,0.00,BKN,,0.00,WeatherDisplay:10.37,2013-05-31 01:32:00,
2013-05-30 21:33:00,81.2,72.9,30.04,SW,214,0.7,3.5,76,0.00,BKN,,0.00,WeatherDisplay:10.37,2013-05-31 01:33:00,
2013-05-30 21:34:00,81.3,72.6,30.04,SW,214,0.8,3.5,75,0.00,BKN,,0.00,WeatherDisplay:10.37,2013-05-31 01:34:00,
2013-05-30 21:36:00,81.3,72.6,30.04,SSW,213,1.0,3.5,75,0.00,BKN,,0.00,WeatherDisplay:10.37,2013-05-31 01:36:00,
2013-05-30 21:37:00,81.4,72.7,30.04,SSW,213,1.3,3.5,75,0.00,BKN,,0.00,WeatherDisplay:10.37,2013-05-31 01:37:00,
2013-05-30 21:38:00,81.4,73.1,30.04,SSW,213,0.7,3.5,76,0.00,BKN,,0.00,WeatherDisplay:10.37,2013-05-31 01:38:00,
2013-05-30 21:39:00,81.4,73.1,30.04,SSW,213,0.6,2.0,76,0.00,BKN,,0.00,WeatherDisplay:10.37,2013-05-31 01:39:00,
2013-05-30 21:42:00,81.4,73.5,30.04,SW,214,0.0,1.1,77,0.00,BKN,,0.00,WeatherDisplay:10.37,2013-05-31 01:42:00,
2013-05-30 21:43:00,81.2,73.3,30.04,SW,214,0.1,0.0,77,0.00,BKN,,0.00,WeatherDisplay:10.37,2013-05-31 01:43:00,
2013-05-30 21:44:00,81.2,73.3,30.04,SSW,213,0.1,1.1,77,0.00,BKN,,0.00,WeatherDisplay:10.37,2013-05-31 01:44:00,
2013-05-30 21:47:00,81.0,73.5,30.04,SSW,213,0.0,0.0,78,0.00,BKN,,0.00,WeatherDisplay:10.37,2013-05-31 01:47:00,
2013-05-30 21:48:00,80.9,73.4,30.04,SW,214,0.0,0.0,78,0.00,BKN,,0.00,WeatherDisplay:10.37,2013-05-31 01:48:00,
2013-05-30 21:49:00,80.7,73.2,30.04,SSW,213,0.0,0.0,78,0.00,BKN,,0.00,WeatherDisplay:10.37,2013-05-31 01:49:00,
2013-05-30 21:50:00,80.8,73.3,30.04,SSW,213,0.0,0.0,78,0.00,BKN,,0.00,WeatherDisplay:10.37,2013-05-31 01:50:00,
2013-05-30 21:52:00,80.5,73.0,30.04,SSW,213,0.0,0.0,78,0.00,BKN,,0.00,WeatherDisplay:10.37,2013-05-31 01:52:00,
2013-05-30 21:53:00,80.4,73.3,30.04,SSW,213,0.0,0.0,79,0.00,BKN,,0.00,WeatherDisplay:10.37,2013-05-31 01:53:00,
2013-05-30 21:55:00,79.8,71.9,30.04,SSW,213,0.0,0.0,77,0.00,BKN,,0.00,WeatherDisplay:10.37,2013-05-31 01:55:00,
2013-05-30 21:57:00,79.9,71.7,30.04,SSW,213,0.0,0.0,76,0.00,BKN,,0.00,WeatherDisplay:10.37,2013-05-31 01:57:00,
2013-05-30 21:58:00,79.8,71.6,30.04,SSW,213,0.0,0.0,76,0.00,BKN,,0.00,WeatherDisplay:10.37,2013-05-31 01:58:00,
2013-05-30 22:00:00,79.7,71.5,30.05,SSW,213,0.0,0.0,76,0.00,BKN,,0.00,WeatherDisplay:10.37,2013-05-31 02:00:00,
2013-05-30 22:03:00,79.5,71.7,30.04,SSW,213,0.0,0.0,77,0.00,SCT,,0.00,WeatherDisplay:10.37,2013-05-31 02:03:00,
2013-05-30 22:04:00,79.4,71.2,30.05,SSW,213,0.0,0.0,76,0.00,SCT,,0.00,WeatherDisplay:10.37,2013-05-31 02:04:00,
2013-05-30 22:05:00,79.4,71.2,30.05,SSW,213,0.0,0.0,76,0.00,SCT,,0.00,WeatherDisplay:10.37,2013-05-31 02:05:00,
2013-05-30 22:08:00,79.5,71.3,30.05,SW,214,0.0,0.0,76,0.00,SCT,,0.00,WeatherDisplay:10.37,2013-05-31 02:08:00,
2013-05-30 22:09:00,79.5,71.7,30.05,SSW,213,0.0,0.0,77,0.00,SCT,,0.00,WeatherDisplay:10.37,2013-05-31 02:09:00,
2013-05-30 22:10:00,79.4,71.6,30.05,SSW,213,0.0,0.0,77,0.00,SCT,,0.00,WeatherDisplay:10.37,2013-05-31 02:10:00,
2013-05-30 22:13:00,78.9,71.8,30.05,SW,214,0.0,0.0,79,0.00,SCT,,0.00,WeatherDisplay:10.37,2013-05-31 02:13:00,
2013-05-30 22:14:00,78.9,71.8,30.05,SSW,213,0.0,0.0,79,0.00,SCT,,0.00,WeatherDisplay:10.37,2013-05-31 02:14:00,
2013-05-30 22:15:00,78.9,71.8,30.05,SSW,213,0.0,0.0,79,0.00,SCT,,0.00,WeatherDisplay:10.37,2013-05-31 02:15:00,
2013-05-30 22:18:00,78.9,71.5,30.05,SSW,213,0.0,0.0,78,0.00,SCT,,0.00,WeatherDisplay:10.37,2013-05-31 02:18:00,
2013-05-30 22:19:00,78.9,71.8,30.05,SSW,213,0.0,0.0,79,0.00,SCT,,0.00,WeatherDisplay:10.37,2013-05-31 02:19:00,
2013-05-30 22:20:00,78.7,71.3,30.05,SSW,213,0.0,0.0,78,0.00,SCT,,0.00,WeatherDisplay:10.37,2013-05-31 02:20:00,
2013-05-30 22:23:00,78.4,71.0,30.05,SSW,213,0.0,0.0,78,0.00,SCT,,0.00,WeatherDisplay:10.37,2013-05-31 02:23:00,
2013-05-30 22:24:00,78.3,71.2,30.05,SSW,213,0.0,0.0,79,0.00,SCT,,0.00,WeatherDisplay:10.37,2013-05-31 02:24:00,
2013-05-30 22:25:00,78.1,70.7,30.05,SSW,213,0.0,0.0,78,0.00,SCT,,0.00,WeatherDisplay:10.37,2013-05-31 02:25:00,
2013-05-30 22:26:00,78.1,71.1,30.05,SSW,213,0.0,0.0,79,0.00,SCT,,0.00,WeatherDisplay:10.37,2013-05-31 02:26:00,
2013-05-30 22:28:00,77.6,70.9,30.05,SSW,213,0.0,0.0,80,0.00,SCT,,0.00,WeatherDisplay:10.37,2013-05-31 02:28:00,
2013-05-30 22:29:00,77.4,70.7,30.05,SSW,213,0.0,1.1,80,0.00,SCT,,0.00,WeatherDisplay:10.37,2013-05-31 02:29:00,
2013-05-30 22:30:00,77.2,70.9,30.05,SSW,213,0.0,0.0,81,0.00,SCT,,0.00,WeatherDisplay:10.37,2013-05-31 02:30:00,
2013-05-30 22:31:00,77.1,70.5,30.05,SSW,213,0.0,0.0,80,0.00,SCT,,0.00,WeatherDisplay:10.37,2013-05-31 02:31:00,
2013-05-30 22:33:00,77.0,70.7,30.05,SW,214,0.0,0.0,81,0.00,SCT,,0.00,WeatherDisplay:10.37,2013-05-31 02:33:00,
2013-05-30 22:35:00,77.0,71.1,30.05,SSW,213,0.0,0.0,82,0.00,SCT,,0.00,WeatherDisplay:10.37,2013-05-31 02:35:00,
2013-05-30 22:36:00,77.2,70.5,30.06,SW,214,0.0,0.0,80,0.00,SCT,,0.00,WeatherDisplay:10.37,2013-05-31 02:36:00,
2013-05-30 22:38:00,77.3,70.6,30.06,SSW,213,0.0,0.0,80,0.00,SCT,,0.00,WeatherDisplay:10.37,2013-05-31 02:38:00,
2013-05-30 22:39:00,77.3,70.3,30.06,SSW,213,0.0,0.0,79,0.00,SCT,,0.00,WeatherDisplay:10.37,2013-05-31 02:39:00,
2013-05-30 22:40:00,77.3,70.3,30.06,SSW,213,0.0,0.0,79,0.00,SCT,,0.00,WeatherDisplay:10.37,2013-05-31 02:40:00,
2013-05-30 22:41:00,77.3,70.6,30.06,SSW,213,0.0,0.0,80,0.00,SCT,,0.00,WeatherDisplay:10.37,2013-05-31 02:41:00,
2013-05-30 22:42:00,77.3,70.6,30.06,SW,214,0.0,0.0,80,0.00,SCT,,0.00,WeatherDisplay:10.37,2013-05-31 02:42:00,
2013-05-30 22:44:00,77.3,70.6,30.06,SSW,213,0.0,0.0,80,0.00,SCT,,0.00,WeatherDisplay:10.37,2013-05-31 02:44:00,
2013-05-30 22:45:00,77.4,70.7,30.05,SSW,213,0.0,0.0,80,0.00,SCT,,0.00,WeatherDisplay:10.37,2013-05-31 02:45:00,
2013-05-30 22:46:00,77.4,70.7,30.06,SW,214,0.0,0.0,80,0.00,SCT,,0.00,WeatherDisplay:10.37,2013-05-31 02:46:00,
2013-05-30 22:47:00,77.4,70.7,30.06,SSW,213,0.0,0.0,80,0.00,SCT,,0.00,WeatherDisplay:10.37,2013-05-31 02:47:00,
2013-05-30 22:49:00,77.3,70.6,30.06,SSW,213,0.0,0.0,80,0.00,SCT,,0.00,WeatherDisplay:10.37,2013-05-31 02:49:00,
2013-05-30 22:50:00,77.3,71.0,30.06,SSW,213,0.0,0.0,81,0.00,SCT,,0.00,WeatherDisplay:10.37,2013-05-31 02:50:00,
2013-05-30 22:51:00,77.3,70.6,30.06,SSW,213,0.0,0.0,80,0.00,SCT,,0.00,WeatherDisplay:10.37,2013-05-31 02:51:00,
2013-05-30 22:52:00,77.3,70.6,30.05,SW,214,0.0,0.0,80,0.00,SCT,,0.00,WeatherDisplay:10.37,2013-05-31 02:52:00,
2013-05-30 22:54:00,77.3,70.6,30.06,SSW,213,0.0,0.0,80,0.00,SCT,,0.00,WeatherDisplay:10.37,2013-05-31 02:54:00,
2013-05-30 22:55:00,77.3,70.6,30.05,SSW,213,0.0,0.0,80,0.00,SCT,,0.00,WeatherDisplay:10.37,2013-05-31 02:55:00,
2013-05-30 22:56:00,77.3,70.6,30.05,SW,214,0.0,0.0,80,0.00,SCT,,0.00,WeatherDisplay:10.37,2013-05-31 02:56:00,
2013-05-30 22:58:00,77.2,70.9,30.05,SW,214,0.0,0.0,81,0.00,SCT,,0.00,WeatherDisplay:10.37,2013-05-31 02:58:00,
2013-05-30 22:59:00,77.1,70.5,30.06,SSW,213,0.0,0.0,80,0.00,SCT,,0.00,WeatherDisplay:10.37,2013-05-31 02:59:00,
2013-05-30 23:01:00,77.1,70.5,30.06,SSW,213,0.0,0.0,80,0.00,CLR,,0.00,WeatherDisplay:10.37,2013-05-31 03:01:00,
2013-05-30 23:03:00,76.9,71.0,30.06,SSW,213,0.0,0.0,82,0.00,CLR,,0.00,WeatherDisplay:10.37,2013-05-31 03:03:00,
2013-05-30 23:04:00,76.9,71.0,30.06,SSW,213,0.0,0.0,82,0.00,CLR,,0.00,WeatherDisplay:10.37,2013-05-31 03:04:00,
2013-05-30 23:06:00,76.8,70.5,30.06,SW,214,0.0,1.1,81,0.00,CLR,,0.00,WeatherDisplay:10.37,2013-05-31 03:06:00,
2013-05-30 23:07:00,76.7,70.4,30.06,SSW,213,0.0,0.0,81,0.00,CLR,,0.00,WeatherDisplay:10.37,2013-05-31 03:07:00,
2013-05-30 23:08:00,76.6,70.3,30.06,SSW,213,0.0,0.0,81,0.00,CLR,,0.00,WeatherDisplay:10.37,2013-05-31 03:08:00,
2013-05-30 23:09:00,76.5,70.2,30.06,SSW,213,0.0,0.0,81,0.00,CLR,,0.00,WeatherDisplay:10.37,2013-05-31 03:09:00,
2013-05-30 23:11:00,76.3,70.4,30.06,SSW,213,0.0,0.0,82,0.00,CLR,,0.00,WeatherDisplay:10.37,2013-05-31 03:11:00,
2013-05-30 23:12:00,76.3,70.4,30.06,SW,214,0.0,0.0,82,0.00,CLR,,0.00,WeatherDisplay:10.37,2013-05-31 03:12:00,
2013-05-30 23:13:00,76.3,70.0,30.06,SSW,213,0.0,0.0,81,0.00,CLR,,0.00,WeatherDisplay:10.37,2013-05-31 03:13:00,
2013-05-30 23:14:00,76.3,70.0,30.06,SSW,213,0.0,0.0,81,0.00,CLR,,0.00,WeatherDisplay:10.37,2013-05-31 03:14:00,
2013-05-30 23:15:00,76.4,70.1,30.06,SSW,213,0.0,0.0,81,0.00,CLR,,0.00,WeatherDisplay:10.37,2013-05-31 03:15:00,
2013-05-30 23:16:00,76.3,70.0,30.06,SSW,213,0.0,0.0,81,0.00,CLR,,0.00,WeatherDisplay:10.37,2013-05-31 03:16:00,
2013-05-30 23:17:00,76.3,70.0,30.06,SSW,213,0.0,0.0,81,0.00,CLR,,0.00,WeatherDisplay:10.37,2013-05-31 03:17:00,
2013-05-30 23:18:00,76.4,70.1,30.06,SSW,213,0.0,0.0,81,0.00,CLR,,0.00,WeatherDisplay:10.37,2013-05-31 03:18:00,
2013-05-30 23:19:00,76.4,70.5,30.06,SSW,213,0.0,0.0,82,0.00,CLR,,0.00,WeatherDisplay:10.37,2013-05-31 03:19:00,
2013-05-30 23:20:00,76.4,70.1,30.06,SSW,213,0.0,0.0,81,0.00,CLR,,0.00,WeatherDisplay:10.37,2013-05-31 03:20:00,
2013-05-30 23:21:00,76.4,70.5,30.06,SSW,213,0.0,0.0,82,0.00,CLR,,0.00,WeatherDisplay:10.37,2013-05-31 03:21:00,
2013-05-30 23:22:00,76.4,70.5,30.06,SSW,213,0.0,0.0,82,0.00,CLR,,0.00,WeatherDisplay:10.37,2013-05-31 03:22:00,
2013-05-30 23:23:00,76.4,70.5,30.06,SSW,213,0.0,0.0,82,0.00,CLR,,0.00,WeatherDisplay:10.37,2013-05-31 03:23:00,
2013-05-30 23:25:00,76.4,70.5,30.06,SW,214,0.0,0.0,82,0.00,CLR,,0.00,WeatherDisplay:10.37,2013-05-31 03:25:00,
2013-05-30 23:27:00,76.3,70.4,30.06,SSW,213,0.0,0.0,82,0.00,CLR,,0.00,WeatherDisplay:10.37,2013-05-31 03:27:00,
2013-05-30 23:28:00,76.2,69.9,30.06,SSW,213,0.0,0.0,81,0.00,CLR,,0.00,WeatherDisplay:10.37,2013-05-31 03:28:00,
2013-05-30 23:30:00,76.0,70.1,30.06,SSW,213,0.0,0.0,82,0.00,CLR,,0.00,WeatherDisplay:10.37,2013-05-31 03:30:00,
2013-05-30 23:32:00,75.7,70.2,30.06,SSW,213,0.0,0.0,83,0.00,CLR,,0.00,WeatherDisplay:10.37,2013-05-31 03:32:00,
2013-05-30 23:33:00,75.7,70.2,30.06,SSW,213,0.0,0.0,83,0.00,CLR,,0.00,WeatherDisplay:10.37,2013-05-31 03:33:00,
2013-05-30 23:35:00,75.7,70.2,30.06,SSW,213,0.0,0.0,83,0.00,CLR,,0.00,WeatherDisplay:10.37,2013-05-31 03:35:00,
2013-05-30 23:37:00,75.7,70.2,30.06,SSW,213,0.0,0.0,83,0.00,CLR,,0.00,WeatherDisplay:10.37,2013-05-31 03:37:00,
2013-05-30 23:39:00,75.6,70.1,30.06,SSW,213,0.0,0.0,83,0.00,CLR,,0.00,WeatherDisplay:10.37,2013-05-31 03:39:00,
2013-05-30 23:40:00,75.6,70.1,30.06,SSW,213,0.0,0.0,83,0.00,CLR,,0.00,WeatherDisplay:10.37,2013-05-31 03:40:00,
2013-05-30 23:41:00,75.6,69.7,30.06,SSW,213,0.0,0.0,82,0.00,CLR,,0.00,WeatherDisplay:10.37,2013-05-31 03:41:00,
2013-05-30 23:42:00,75.5,69.6,30.06,SSW,213,0.0,0.0,82,0.00,CLR,,0.00,WeatherDisplay:10.37,2013-05-31 03:42:00,
2013-05-30 23:44:00,75.5,69.6,30.06,SSW,213,0.0,0.0,82,0.00,CLR,,0.00,WeatherDisplay:10.37,2013-05-31 03:44:00,
2013-05-30 23:45:00,75.4,69.9,30.06,SSW,213,0.0,0.0,83,0.00,CLR,,0.00,WeatherDisplay:10.37,2013-05-31 03:45:00,
2013-05-30 23:46:00,75.4,69.9,30.06,SSW,213,0.0,0.0,83,0.00,CLR,,0.00,WeatherDisplay:10.37,2013-05-31 03:46:00,
2013-05-30 23:47:00,75.4,69.9,30.07,SSW,213,0.0,0.0,83,0.00,CLR,,0.00,WeatherDisplay:10.37,2013-05-31 03:47:00,
2013-05-30 23:48:00,75.3,69.8,30.07,SSW,213,0.0,0.0,83,0.00,CLR,,0.00,WeatherDisplay:10.37,2013-05-31 03:48:00,
2013-05-30 23:49:00,75.3,69.8,30.06,SSW,213,0.0,0.0,83,0.00,CLR,,0.00,WeatherDisplay:10.37,2013-05-31 03:49:00,
2013-05-30 23:50:00,75.2,69.7,30.06,SSW,213,0.0,0.0,83,0.00,CLR,,0.00,WeatherDisplay:10.37,2013-05-31 03:50:00,
2013-05-30 23:51:00,75.2,69.7,30.07,SSW,213,0.0,0.0,83,0.00,CLR,,0.00,WeatherDisplay:10.37,2013-05-31 03:51:00,
2013-05-30 23:52:00,75.2,69.7,30.07,SSW,213,0.0,0.0,83,0.00,CLR,,0.00,WeatherDisplay:10.37,2013-05-31 03:52:00,
2013-05-30 23:53:00,75.1,69.6,30.06,SW,214,0.0,0.0,83,0.00,CLR,,0.00,WeatherDisplay:10.37,2013-05-31 03:53:00,
2013-05-30 23:54:00,75.1,69.6,30.07,SSW,213,0.0,0.0,83,0.00,CLR,,0.00,WeatherDisplay:10.37,2013-05-31 03:54:00,
2013-05-30 23:56:00,75.1,69.6,30.07,SSW,213,0.0,0.0,83,0.00,CLR,,0.00,WeatherDisplay:10.37,2013-05-31 03:56:00,
2013-05-30 23:57:00,75.0,69.5,30.07,SSW,213,0.0,0.0,83,0.00,CLR,,0.00,WeatherDisplay:10.37,2013-05-31 03:57:00,
2013-05-30 23:58:00,74.9,69.7,30.07,SW,214,0.0,0.0,84,0.00,CLR,,0.00,WeatherDisplay:10.37,2013-05-31 03:58:00,
2013-05-30 23:59:00,74.9,69.7,30.07,SSW,213,0.0,0.0,84,0.00,CLR,,0.00,WeatherDisplay:10.37,2013-05-31 03:59:00,